<?xml version="1.0" encoding="UTF-8" standalone="no" ?>
<gpx xmlns="http://www.topografix.com/GPX/1/1" xmlns:xsi="http://www.w3.org/2001/XMLSchema-instance" xsi:schemaLocation="http://www.topografix.com/GPX/1/1 http://www.topografix.com/GPX/1/1/gpx.xsd" version="1.1" creator="VisuGPX - https://www.visugpx.com">
  <metadata>
    <name>Le lac de GUERY</name>
    <desc><![CDATA[Le lac de GUERY plutôt un parcours randonnée mais peux se faire en marche nordique]]></desc>
  </metadata>
  <trk>
    <name><![CDATA[lac de guery 2018]]></name>
    <trkseg>
      <trkpt lat="45.62148" lon="2.82002">
        <ele>1263</ele>
        <time>2018-07-10T20:06:12Z</time>
      </trkpt>
      <trkpt lat="45.6215" lon="2.8199">
        <ele>1263</ele>
        <time>2018-07-10T20:07:12Z</time>
      </trkpt>
      <trkpt lat="45.62154" lon="2.81979">
        <ele>1263</ele>
        <time>2018-07-10T20:08:12Z</time>
      </trkpt>
      <trkpt lat="45.62158" lon="2.81968">
        <ele>1263</ele>
        <time>2018-07-10T20:09:12Z</time>
      </trkpt>
      <trkpt lat="45.62161" lon="2.81956">
        <ele>1263</ele>
        <time>2018-07-10T20:10:12Z</time>
      </trkpt>
      <trkpt lat="45.62164" lon="2.81946">
        <ele>1263</ele>
        <time>2018-07-10T20:11:12Z</time>
      </trkpt>
      <trkpt lat="45.62169" lon="2.81934">
        <ele>1262</ele>
        <time>2018-07-10T20:12:12Z</time>
      </trkpt>
      <trkpt lat="45.62171" lon="2.81919">
        <ele>1261</ele>
        <time>2018-07-10T20:13:12Z</time>
      </trkpt>
      <trkpt lat="45.62173" lon="2.81906">
        <ele>1262</ele>
        <time>2018-07-10T20:14:12Z</time>
      </trkpt>
      <trkpt lat="45.62173" lon="2.8189">
        <ele>1264</ele>
        <time>2018-07-10T20:15:12Z</time>
      </trkpt>
      <trkpt lat="45.62175" lon="2.81878">
        <ele>1264</ele>
        <time>2018-07-10T20:16:12Z</time>
      </trkpt>
      <trkpt lat="45.62177" lon="2.81869">
        <ele>1265</ele>
        <time>2018-07-10T20:17:12Z</time>
      </trkpt>
      <trkpt lat="45.62184" lon="2.81857">
        <ele>1264</ele>
        <time>2018-07-10T20:18:12Z</time>
      </trkpt>
      <trkpt lat="45.62188" lon="2.81842">
        <ele>1264</ele>
        <time>2018-07-10T20:19:12Z</time>
      </trkpt>
      <trkpt lat="45.62193" lon="2.81831">
        <ele>1263</ele>
        <time>2018-07-10T20:20:12Z</time>
      </trkpt>
      <trkpt lat="45.62204" lon="2.81817">
        <ele>1261</ele>
        <time>2018-07-10T20:21:12Z</time>
      </trkpt>
      <trkpt lat="45.62208" lon="2.81804">
        <ele>1261</ele>
        <time>2018-07-10T20:22:12Z</time>
      </trkpt>
      <trkpt lat="45.6221" lon="2.81795">
        <ele>1262</ele>
        <time>2018-07-10T20:23:12Z</time>
      </trkpt>
      <trkpt lat="45.62213" lon="2.8178">
        <ele>1263</ele>
        <time>2018-07-10T20:24:12Z</time>
      </trkpt>
      <trkpt lat="45.62216" lon="2.8177">
        <ele>1264</ele>
        <time>2018-07-10T20:25:12Z</time>
      </trkpt>
      <trkpt lat="45.62219" lon="2.8176">
        <ele>1264</ele>
        <time>2018-07-10T20:26:12Z</time>
      </trkpt>
      <trkpt lat="45.62226" lon="2.81747">
        <ele>1264</ele>
        <time>2018-07-10T20:27:12Z</time>
      </trkpt>
      <trkpt lat="45.62243" lon="2.81728">
        <ele>1261</ele>
        <time>2018-07-10T20:28:12Z</time>
      </trkpt>
      <trkpt lat="45.62238" lon="2.81717">
        <ele>1264</ele>
        <time>2018-07-10T20:29:12Z</time>
      </trkpt>
      <trkpt lat="45.62251" lon="2.81723">
        <ele>1260</ele>
        <time>2018-07-10T20:30:12Z</time>
      </trkpt>
      <trkpt lat="45.62251" lon="2.81724">
        <ele>1259</ele>
        <time>2018-07-10T20:31:12Z</time>
      </trkpt>
      <trkpt lat="45.62258" lon="2.81702">
        <ele>1260</ele>
        <time>2018-07-10T20:32:12Z</time>
      </trkpt>
      <trkpt lat="45.62258" lon="2.81683">
        <ele>1262</ele>
        <time>2018-07-10T20:33:12Z</time>
      </trkpt>
      <trkpt lat="45.62266" lon="2.81667">
        <ele>1262</ele>
        <time>2018-07-10T20:34:12Z</time>
      </trkpt>
      <trkpt lat="45.62271" lon="2.81654">
        <ele>1262</ele>
        <time>2018-07-10T20:35:12Z</time>
      </trkpt>
      <trkpt lat="45.62276" lon="2.81647">
        <ele>1262</ele>
        <time>2018-07-10T20:36:12Z</time>
      </trkpt>
      <trkpt lat="45.62288" lon="2.8164">
        <ele>1260</ele>
        <time>2018-07-10T20:37:12Z</time>
      </trkpt>
      <trkpt lat="45.62298" lon="2.81635">
        <ele>1259</ele>
        <time>2018-07-10T20:38:12Z</time>
      </trkpt>
      <trkpt lat="45.62304" lon="2.81634">
        <ele>1258</ele>
        <time>2018-07-10T20:39:12Z</time>
      </trkpt>
      <trkpt lat="45.62313" lon="2.81634">
        <ele>1257</ele>
        <time>2018-07-10T20:40:12Z</time>
      </trkpt>
      <trkpt lat="45.62327" lon="2.8163">
        <ele>1255</ele>
        <time>2018-07-10T20:41:12Z</time>
      </trkpt>
      <trkpt lat="45.62339" lon="2.81632">
        <ele>1254</ele>
        <time>2018-07-10T20:42:12Z</time>
      </trkpt>
      <trkpt lat="45.62353" lon="2.81632">
        <ele>1253</ele>
        <time>2018-07-10T20:43:12Z</time>
      </trkpt>
      <trkpt lat="45.62361" lon="2.81625">
        <ele>1254</ele>
        <time>2018-07-10T20:44:12Z</time>
      </trkpt>
      <trkpt lat="45.62361" lon="2.81622">
        <ele>1254</ele>
        <time>2018-07-10T20:45:12Z</time>
      </trkpt>
      <trkpt lat="45.62363" lon="2.8162">
        <ele>1255</ele>
        <time>2018-07-10T20:46:12Z</time>
      </trkpt>
      <trkpt lat="45.62368" lon="2.81607">
        <ele>1256</ele>
        <time>2018-07-10T20:47:12Z</time>
      </trkpt>
      <trkpt lat="45.62356" lon="2.81597">
        <ele>1258</ele>
        <time>2018-07-10T20:48:12Z</time>
      </trkpt>
      <trkpt lat="45.62347" lon="2.81592">
        <ele>1260</ele>
        <time>2018-07-10T20:49:12Z</time>
      </trkpt>
      <trkpt lat="45.62337" lon="2.81586">
        <ele>1261</ele>
        <time>2018-07-10T20:50:12Z</time>
      </trkpt>
      <trkpt lat="45.62329" lon="2.81578">
        <ele>1263</ele>
        <time>2018-07-10T20:51:12Z</time>
      </trkpt>
      <trkpt lat="45.62316" lon="2.8157">
        <ele>1264</ele>
        <time>2018-07-10T20:52:12Z</time>
      </trkpt>
      <trkpt lat="45.62304" lon="2.81563">
        <ele>1265</ele>
        <time>2018-07-10T20:53:12Z</time>
      </trkpt>
      <trkpt lat="45.62295" lon="2.81554">
        <ele>1267</ele>
        <time>2018-07-10T20:54:12Z</time>
      </trkpt>
      <trkpt lat="45.62279" lon="2.8153">
        <ele>1269</ele>
        <time>2018-07-10T20:55:12Z</time>
      </trkpt>
      <trkpt lat="45.6226" lon="2.81502">
        <ele>1272</ele>
        <time>2018-07-10T20:56:12Z</time>
      </trkpt>
      <trkpt lat="45.62254" lon="2.81487">
        <ele>1273</ele>
        <time>2018-07-10T20:57:12Z</time>
      </trkpt>
      <trkpt lat="45.6224" lon="2.81475">
        <ele>1275</ele>
        <time>2018-07-10T20:58:12Z</time>
      </trkpt>
      <trkpt lat="45.62232" lon="2.81469">
        <ele>1276</ele>
        <time>2018-07-10T20:59:12Z</time>
      </trkpt>
      <trkpt lat="45.62223" lon="2.81466">
        <ele>1276</ele>
        <time>2018-07-10T21:00:12Z</time>
      </trkpt>
      <trkpt lat="45.62213" lon="2.81466">
        <ele>1277</ele>
        <time>2018-07-10T21:01:12Z</time>
      </trkpt>
      <trkpt lat="45.62212" lon="2.81469">
        <ele>1277</ele>
        <time>2018-07-10T21:02:12Z</time>
      </trkpt>
      <trkpt lat="45.6221" lon="2.81468">
        <ele>1277</ele>
        <time>2018-07-10T21:03:12Z</time>
      </trkpt>
      <trkpt lat="45.62205" lon="2.8146">
        <ele>1278</ele>
        <time>2018-07-10T21:04:12Z</time>
      </trkpt>
      <trkpt lat="45.62199" lon="2.81451">
        <ele>1278</ele>
        <time>2018-07-10T21:05:12Z</time>
      </trkpt>
      <trkpt lat="45.62194" lon="2.8144">
        <ele>1279</ele>
        <time>2018-07-10T21:06:12Z</time>
      </trkpt>
      <trkpt lat="45.62189" lon="2.81428">
        <ele>1280</ele>
        <time>2018-07-10T21:07:12Z</time>
      </trkpt>
      <trkpt lat="45.62189" lon="2.81427">
        <ele>1280</ele>
        <time>2018-07-10T21:08:12Z</time>
      </trkpt>
      <trkpt lat="45.62185" lon="2.81416">
        <ele>1280</ele>
        <time>2018-07-10T21:09:12Z</time>
      </trkpt>
      <trkpt lat="45.62181" lon="2.81388">
        <ele>1282</ele>
        <time>2018-07-10T21:10:12Z</time>
      </trkpt>
      <trkpt lat="45.62176" lon="2.81377">
        <ele>1283</ele>
        <time>2018-07-10T21:11:12Z</time>
      </trkpt>
      <trkpt lat="45.62169" lon="2.8135">
        <ele>1285</ele>
        <time>2018-07-10T21:12:12Z</time>
      </trkpt>
      <trkpt lat="45.62171" lon="2.81342">
        <ele>1286</ele>
        <time>2018-07-10T21:13:12Z</time>
      </trkpt>
      <trkpt lat="45.62168" lon="2.81332">
        <ele>1287</ele>
        <time>2018-07-10T21:14:12Z</time>
      </trkpt>
      <trkpt lat="45.62168" lon="2.81327">
        <ele>1287</ele>
        <time>2018-07-10T21:15:12Z</time>
      </trkpt>
      <trkpt lat="45.62167" lon="2.81315">
        <ele>1288</ele>
        <time>2018-07-10T21:16:12Z</time>
      </trkpt>
      <trkpt lat="45.62175" lon="2.81303">
        <ele>1288</ele>
        <time>2018-07-10T21:17:12Z</time>
      </trkpt>
      <trkpt lat="45.62183" lon="2.8129">
        <ele>1287</ele>
        <time>2018-07-10T21:18:12Z</time>
      </trkpt>
      <trkpt lat="45.62191" lon="2.81279">
        <ele>1286</ele>
        <time>2018-07-10T21:19:12Z</time>
      </trkpt>
      <trkpt lat="45.62202" lon="2.8127">
        <ele>1284</ele>
        <time>2018-07-10T21:20:12Z</time>
      </trkpt>
      <trkpt lat="45.62207" lon="2.8127">
        <ele>1283</ele>
        <time>2018-07-10T21:21:12Z</time>
      </trkpt>
      <trkpt lat="45.62221" lon="2.81257">
        <ele>1281</ele>
        <time>2018-07-10T21:22:12Z</time>
      </trkpt>
      <trkpt lat="45.62224" lon="2.81255">
        <ele>1280</ele>
        <time>2018-07-10T21:23:12Z</time>
      </trkpt>
      <trkpt lat="45.62222" lon="2.81254">
        <ele>1281</ele>
        <time>2018-07-10T21:24:12Z</time>
      </trkpt>
      <trkpt lat="45.62229" lon="2.81246">
        <ele>1280</ele>
        <time>2018-07-10T21:25:12Z</time>
      </trkpt>
      <trkpt lat="45.62236" lon="2.81241">
        <ele>1279</ele>
        <time>2018-07-10T21:26:12Z</time>
      </trkpt>
      <trkpt lat="45.62241" lon="2.81236">
        <ele>1278</ele>
        <time>2018-07-10T21:27:12Z</time>
      </trkpt>
      <trkpt lat="45.6225" lon="2.81227">
        <ele>1277</ele>
        <time>2018-07-10T21:28:12Z</time>
      </trkpt>
      <trkpt lat="45.62257" lon="2.81214">
        <ele>1278</ele>
        <time>2018-07-10T21:29:12Z</time>
      </trkpt>
      <trkpt lat="45.62257" lon="2.81198">
        <ele>1280</ele>
        <time>2018-07-10T21:30:12Z</time>
      </trkpt>
      <trkpt lat="45.62259" lon="2.81195">
        <ele>1280</ele>
        <time>2018-07-10T21:31:12Z</time>
      </trkpt>
      <trkpt lat="45.62268" lon="2.81188">
        <ele>1281</ele>
        <time>2018-07-10T21:32:12Z</time>
      </trkpt>
      <trkpt lat="45.62273" lon="2.81189">
        <ele>1280</ele>
        <time>2018-07-10T21:33:12Z</time>
      </trkpt>
      <trkpt lat="45.62277" lon="2.81195">
        <ele>1279</ele>
        <time>2018-07-10T21:34:12Z</time>
      </trkpt>
      <trkpt lat="45.62288" lon="2.81195">
        <ele>1279</ele>
        <time>2018-07-10T21:35:12Z</time>
      </trkpt>
      <trkpt lat="45.62294" lon="2.81187">
        <ele>1279</ele>
        <time>2018-07-10T21:36:12Z</time>
      </trkpt>
      <trkpt lat="45.62307" lon="2.81182">
        <ele>1279</ele>
        <time>2018-07-10T21:37:12Z</time>
      </trkpt>
      <trkpt lat="45.62323" lon="2.81176">
        <ele>1279</ele>
        <time>2018-07-10T21:38:12Z</time>
      </trkpt>
      <trkpt lat="45.62332" lon="2.81166">
        <ele>1280</ele>
        <time>2018-07-10T21:39:12Z</time>
      </trkpt>
      <trkpt lat="45.62339" lon="2.81165">
        <ele>1279</ele>
        <time>2018-07-10T21:40:12Z</time>
      </trkpt>
      <trkpt lat="45.62352" lon="2.81152">
        <ele>1277</ele>
        <time>2018-07-10T21:41:12Z</time>
      </trkpt>
      <trkpt lat="45.62358" lon="2.81148">
        <ele>1275</ele>
        <time>2018-07-10T21:42:12Z</time>
      </trkpt>
      <trkpt lat="45.62361" lon="2.81139">
        <ele>1276</ele>
        <time>2018-07-10T21:43:12Z</time>
      </trkpt>
      <trkpt lat="45.62366" lon="2.81123">
        <ele>1277</ele>
        <time>2018-07-10T21:44:12Z</time>
      </trkpt>
      <trkpt lat="45.6237" lon="2.81109">
        <ele>1278</ele>
        <time>2018-07-10T21:45:12Z</time>
      </trkpt>
      <trkpt lat="45.62373" lon="2.81094">
        <ele>1279</ele>
        <time>2018-07-10T21:46:12Z</time>
      </trkpt>
      <trkpt lat="45.62374" lon="2.81069">
        <ele>1283</ele>
        <time>2018-07-10T21:47:12Z</time>
      </trkpt>
      <trkpt lat="45.62374" lon="2.81057">
        <ele>1284</ele>
        <time>2018-07-10T21:48:12Z</time>
      </trkpt>
      <trkpt lat="45.62376" lon="2.81028">
        <ele>1288</ele>
        <time>2018-07-10T21:49:12Z</time>
      </trkpt>
      <trkpt lat="45.62376" lon="2.81017">
        <ele>1289</ele>
        <time>2018-07-10T21:50:12Z</time>
      </trkpt>
      <trkpt lat="45.62378" lon="2.81015">
        <ele>1289</ele>
        <time>2018-07-10T21:51:12Z</time>
      </trkpt>
      <trkpt lat="45.62381" lon="2.81004">
        <ele>1290</ele>
        <time>2018-07-10T21:52:12Z</time>
      </trkpt>
      <trkpt lat="45.62384" lon="2.81012">
        <ele>1288</ele>
        <time>2018-07-10T21:53:12Z</time>
      </trkpt>
      <trkpt lat="45.62381" lon="2.8102">
        <ele>1287</ele>
        <time>2018-07-10T21:54:12Z</time>
      </trkpt>
      <trkpt lat="45.6238" lon="2.8102">
        <ele>1288</ele>
        <time>2018-07-10T21:55:12Z</time>
      </trkpt>
      <trkpt lat="45.62384" lon="2.81011">
        <ele>1288</ele>
        <time>2018-07-10T21:56:12Z</time>
      </trkpt>
      <trkpt lat="45.62385" lon="2.81006">
        <ele>1288</ele>
        <time>2018-07-10T21:57:12Z</time>
      </trkpt>
      <trkpt lat="45.62385" lon="2.81001">
        <ele>1289</ele>
        <time>2018-07-10T21:58:12Z</time>
      </trkpt>
      <trkpt lat="45.62386" lon="2.81001">
        <ele>1288</ele>
        <time>2018-07-10T21:59:12Z</time>
      </trkpt>
      <trkpt lat="45.62385" lon="2.81008">
        <ele>1288</ele>
        <time>2018-07-10T22:00:12Z</time>
      </trkpt>
      <trkpt lat="45.62383" lon="2.80995">
        <ele>1290</ele>
        <time>2018-07-10T22:01:12Z</time>
      </trkpt>
      <trkpt lat="45.62388" lon="2.80983">
        <ele>1290</ele>
        <time>2018-07-10T22:02:12Z</time>
      </trkpt>
      <trkpt lat="45.62393" lon="2.80968">
        <ele>1290</ele>
        <time>2018-07-10T22:03:12Z</time>
      </trkpt>
      <trkpt lat="45.62392" lon="2.80961">
        <ele>1291</ele>
        <time>2018-07-10T22:04:12Z</time>
      </trkpt>
      <trkpt lat="45.62392" lon="2.8095">
        <ele>1293</ele>
        <time>2018-07-10T22:05:12Z</time>
      </trkpt>
      <trkpt lat="45.62394" lon="2.80936">
        <ele>1294</ele>
        <time>2018-07-10T22:06:12Z</time>
      </trkpt>
      <trkpt lat="45.62394" lon="2.80925">
        <ele>1295</ele>
        <time>2018-07-10T22:07:12Z</time>
      </trkpt>
      <trkpt lat="45.62398" lon="2.80917">
        <ele>1295</ele>
        <time>2018-07-10T22:08:12Z</time>
      </trkpt>
      <trkpt lat="45.62398" lon="2.80919">
        <ele>1295</ele>
        <time>2018-07-10T22:09:12Z</time>
      </trkpt>
      <trkpt lat="45.62398" lon="2.80917">
        <ele>1295</ele>
        <time>2018-07-10T22:10:12Z</time>
      </trkpt>
      <trkpt lat="45.62397" lon="2.80914">
        <ele>1295</ele>
        <time>2018-07-10T22:11:12Z</time>
      </trkpt>
      <trkpt lat="45.62393" lon="2.80913">
        <ele>1297</ele>
        <time>2018-07-10T22:12:12Z</time>
      </trkpt>
      <trkpt lat="45.62398" lon="2.80909">
        <ele>1295</ele>
        <time>2018-07-10T22:13:12Z</time>
      </trkpt>
      <trkpt lat="45.62396" lon="2.80902">
        <ele>1296</ele>
        <time>2018-07-10T22:14:12Z</time>
      </trkpt>
      <trkpt lat="45.62387" lon="2.80895">
        <ele>1299</ele>
        <time>2018-07-10T22:15:12Z</time>
      </trkpt>
      <trkpt lat="45.62377" lon="2.80892">
        <ele>1302</ele>
        <time>2018-07-10T22:16:12Z</time>
      </trkpt>
      <trkpt lat="45.6237" lon="2.80887">
        <ele>1304</ele>
        <time>2018-07-10T22:17:12Z</time>
      </trkpt>
      <trkpt lat="45.62363" lon="2.80884">
        <ele>1306</ele>
        <time>2018-07-10T22:18:12Z</time>
      </trkpt>
      <trkpt lat="45.62347" lon="2.80883">
        <ele>1311</ele>
        <time>2018-07-10T22:19:12Z</time>
      </trkpt>
      <trkpt lat="45.6234" lon="2.80882">
        <ele>1313</ele>
        <time>2018-07-10T22:20:12Z</time>
      </trkpt>
      <trkpt lat="45.62345" lon="2.80883">
        <ele>1311</ele>
        <time>2018-07-10T22:21:12Z</time>
      </trkpt>
      <trkpt lat="45.62341" lon="2.80881">
        <ele>1312</ele>
        <time>2018-07-10T22:22:12Z</time>
      </trkpt>
      <trkpt lat="45.62342" lon="2.80881">
        <ele>1312</ele>
        <time>2018-07-10T22:23:12Z</time>
      </trkpt>
      <trkpt lat="45.62342" lon="2.8088">
        <ele>1312</ele>
        <time>2018-07-10T22:24:12Z</time>
      </trkpt>
      <trkpt lat="45.62329" lon="2.80869">
        <ele>1315</ele>
        <time>2018-07-10T22:25:12Z</time>
      </trkpt>
      <trkpt lat="45.62323" lon="2.80856">
        <ele>1315</ele>
        <time>2018-07-10T22:26:12Z</time>
      </trkpt>
      <trkpt lat="45.62325" lon="2.80845">
        <ele>1315</ele>
        <time>2018-07-10T22:27:12Z</time>
      </trkpt>
      <trkpt lat="45.62325" lon="2.80847">
        <ele>1315</ele>
        <time>2018-07-10T22:28:12Z</time>
      </trkpt>
      <trkpt lat="45.62326" lon="2.80843">
        <ele>1314</ele>
        <time>2018-07-10T22:29:12Z</time>
      </trkpt>
      <trkpt lat="45.62326" lon="2.80837">
        <ele>1314</ele>
        <time>2018-07-10T22:30:12Z</time>
      </trkpt>
      <trkpt lat="45.62316" lon="2.80826">
        <ele>1315</ele>
        <time>2018-07-10T22:31:12Z</time>
      </trkpt>
      <trkpt lat="45.62306" lon="2.80819">
        <ele>1316</ele>
        <time>2018-07-10T22:32:12Z</time>
      </trkpt>
      <trkpt lat="45.62302" lon="2.80814">
        <ele>1316</ele>
        <time>2018-07-10T22:33:12Z</time>
      </trkpt>
      <trkpt lat="45.62298" lon="2.80817">
        <ele>1317</ele>
        <time>2018-07-10T22:34:12Z</time>
      </trkpt>
      <trkpt lat="45.62289" lon="2.80818">
        <ele>1317</ele>
        <time>2018-07-10T22:35:12Z</time>
      </trkpt>
      <trkpt lat="45.62278" lon="2.80819">
        <ele>1318</ele>
        <time>2018-07-10T22:36:12Z</time>
      </trkpt>
      <trkpt lat="45.62267" lon="2.80822">
        <ele>1318</ele>
        <time>2018-07-10T22:37:12Z</time>
      </trkpt>
      <trkpt lat="45.62261" lon="2.80825">
        <ele>1319</ele>
        <time>2018-07-10T22:38:12Z</time>
      </trkpt>
      <trkpt lat="45.62241" lon="2.80825">
        <ele>1319</ele>
        <time>2018-07-10T22:39:12Z</time>
      </trkpt>
      <trkpt lat="45.62223" lon="2.80821">
        <ele>1319</ele>
        <time>2018-07-10T22:40:12Z</time>
      </trkpt>
      <trkpt lat="45.62216" lon="2.80823">
        <ele>1319</ele>
        <time>2018-07-10T22:41:12Z</time>
      </trkpt>
      <trkpt lat="45.62206" lon="2.80815">
        <ele>1319</ele>
        <time>2018-07-10T22:42:12Z</time>
      </trkpt>
      <trkpt lat="45.62185" lon="2.80804">
        <ele>1320</ele>
        <time>2018-07-10T22:43:12Z</time>
      </trkpt>
      <trkpt lat="45.62176" lon="2.80798">
        <ele>1321</ele>
        <time>2018-07-10T22:44:12Z</time>
      </trkpt>
      <trkpt lat="45.62177" lon="2.80788">
        <ele>1322</ele>
        <time>2018-07-10T22:45:12Z</time>
      </trkpt>
      <trkpt lat="45.62181" lon="2.80784">
        <ele>1322</ele>
        <time>2018-07-10T22:46:12Z</time>
      </trkpt>
      <trkpt lat="45.62178" lon="2.80795">
        <ele>1321</ele>
        <time>2018-07-10T22:47:12Z</time>
      </trkpt>
      <trkpt lat="45.62176" lon="2.80793">
        <ele>1321</ele>
        <time>2018-07-10T22:48:12Z</time>
      </trkpt>
      <trkpt lat="45.62172" lon="2.80794">
        <ele>1321</ele>
        <time>2018-07-10T22:49:12Z</time>
      </trkpt>
      <trkpt lat="45.62174" lon="2.80789">
        <ele>1322</ele>
        <time>2018-07-10T22:50:12Z</time>
      </trkpt>
      <trkpt lat="45.62175" lon="2.80797">
        <ele>1321</ele>
        <time>2018-07-10T22:51:12Z</time>
      </trkpt>
      <trkpt lat="45.62173" lon="2.80795">
        <ele>1321</ele>
        <time>2018-07-10T22:52:12Z</time>
      </trkpt>
      <trkpt lat="45.62167" lon="2.80783">
        <ele>1322</ele>
        <time>2018-07-10T22:53:12Z</time>
      </trkpt>
      <trkpt lat="45.62155" lon="2.80775">
        <ele>1325</ele>
        <time>2018-07-10T22:54:12Z</time>
      </trkpt>
      <trkpt lat="45.62147" lon="2.80774">
        <ele>1327</ele>
        <time>2018-07-10T22:55:12Z</time>
      </trkpt>
      <trkpt lat="45.62135" lon="2.8077">
        <ele>1329</ele>
        <time>2018-07-10T22:56:12Z</time>
      </trkpt>
      <trkpt lat="45.62134" lon="2.80769">
        <ele>1329</ele>
        <time>2018-07-10T22:57:12Z</time>
      </trkpt>
      <trkpt lat="45.62135" lon="2.80762">
        <ele>1330</ele>
        <time>2018-07-10T22:58:12Z</time>
      </trkpt>
      <trkpt lat="45.62146" lon="2.80748">
        <ele>1329</ele>
        <time>2018-07-10T22:59:12Z</time>
      </trkpt>
      <trkpt lat="45.62143" lon="2.80735">
        <ele>1331</ele>
        <time>2018-07-10T23:00:12Z</time>
      </trkpt>
      <trkpt lat="45.62142" lon="2.80729">
        <ele>1331</ele>
        <time>2018-07-10T23:01:12Z</time>
      </trkpt>
      <trkpt lat="45.62139" lon="2.80717">
        <ele>1332</ele>
        <time>2018-07-10T23:02:12Z</time>
      </trkpt>
      <trkpt lat="45.62127" lon="2.80707">
        <ele>1335</ele>
        <time>2018-07-10T23:03:12Z</time>
      </trkpt>
      <trkpt lat="45.62121" lon="2.80704">
        <ele>1336</ele>
        <time>2018-07-10T23:04:12Z</time>
      </trkpt>
      <trkpt lat="45.62118" lon="2.80699">
        <ele>1337</ele>
        <time>2018-07-10T23:05:12Z</time>
      </trkpt>
      <trkpt lat="45.62111" lon="2.80696">
        <ele>1338</ele>
        <time>2018-07-10T23:06:12Z</time>
      </trkpt>
      <trkpt lat="45.62104" lon="2.80703">
        <ele>1339</ele>
        <time>2018-07-10T23:07:12Z</time>
      </trkpt>
      <trkpt lat="45.62097" lon="2.80704">
        <ele>1340</ele>
        <time>2018-07-10T23:08:12Z</time>
      </trkpt>
      <trkpt lat="45.62096" lon="2.80705">
        <ele>1340</ele>
        <time>2018-07-10T23:09:12Z</time>
      </trkpt>
      <trkpt lat="45.62094" lon="2.80725">
        <ele>1339</ele>
        <time>2018-07-10T23:10:12Z</time>
      </trkpt>
      <trkpt lat="45.62094" lon="2.80737">
        <ele>1338</ele>
        <time>2018-07-10T23:11:12Z</time>
      </trkpt>
      <trkpt lat="45.62089" lon="2.80753">
        <ele>1338</ele>
        <time>2018-07-10T23:12:12Z</time>
      </trkpt>
      <trkpt lat="45.62086" lon="2.80767">
        <ele>1337</ele>
        <time>2018-07-10T23:13:12Z</time>
      </trkpt>
      <trkpt lat="45.62082" lon="2.80784">
        <ele>1336</ele>
        <time>2018-07-10T23:14:12Z</time>
      </trkpt>
      <trkpt lat="45.62074" lon="2.80811">
        <ele>1334</ele>
        <time>2018-07-10T23:15:12Z</time>
      </trkpt>
      <trkpt lat="45.6207" lon="2.80826">
        <ele>1333</ele>
        <time>2018-07-10T23:16:12Z</time>
      </trkpt>
      <trkpt lat="45.62069" lon="2.80834">
        <ele>1333</ele>
        <time>2018-07-10T23:17:12Z</time>
      </trkpt>
      <trkpt lat="45.6207" lon="2.80835">
        <ele>1333</ele>
        <time>2018-07-10T23:18:12Z</time>
      </trkpt>
      <trkpt lat="45.62069" lon="2.80837">
        <ele>1333</ele>
        <time>2018-07-10T23:19:12Z</time>
      </trkpt>
      <trkpt lat="45.62069" lon="2.80836">
        <ele>1333</ele>
        <time>2018-07-10T23:20:12Z</time>
      </trkpt>
      <trkpt lat="45.62059" lon="2.8083">
        <ele>1334</ele>
        <time>2018-07-10T23:21:12Z</time>
      </trkpt>
      <trkpt lat="45.62053" lon="2.80829">
        <ele>1335</ele>
        <time>2018-07-10T23:22:12Z</time>
      </trkpt>
      <trkpt lat="45.62052" lon="2.80828">
        <ele>1336</ele>
        <time>2018-07-10T23:23:12Z</time>
      </trkpt>
      <trkpt lat="45.6205" lon="2.80837">
        <ele>1335</ele>
        <time>2018-07-10T23:24:12Z</time>
      </trkpt>
      <trkpt lat="45.6205" lon="2.80846">
        <ele>1334</ele>
        <time>2018-07-10T23:25:12Z</time>
      </trkpt>
      <trkpt lat="45.6205" lon="2.80854">
        <ele>1334</ele>
        <time>2018-07-10T23:26:12Z</time>
      </trkpt>
      <trkpt lat="45.62048" lon="2.80858">
        <ele>1334</ele>
        <time>2018-07-10T23:27:12Z</time>
      </trkpt>
      <trkpt lat="45.62048" lon="2.80858">
        <ele>1334</ele>
        <time>2018-07-10T23:28:12Z</time>
      </trkpt>
      <trkpt lat="45.62049" lon="2.80869">
        <ele>1333</ele>
        <time>2018-07-10T23:29:12Z</time>
      </trkpt>
      <trkpt lat="45.62051" lon="2.80885">
        <ele>1331</ele>
        <time>2018-07-10T23:30:12Z</time>
      </trkpt>
      <trkpt lat="45.62049" lon="2.80896">
        <ele>1331</ele>
        <time>2018-07-10T23:31:12Z</time>
      </trkpt>
      <trkpt lat="45.62049" lon="2.80912">
        <ele>1329</ele>
        <time>2018-07-10T23:32:12Z</time>
      </trkpt>
      <trkpt lat="45.62049" lon="2.80924">
        <ele>1329</ele>
        <time>2018-07-10T23:33:12Z</time>
      </trkpt>
      <trkpt lat="45.62046" lon="2.80952">
        <ele>1328</ele>
        <time>2018-07-10T23:34:12Z</time>
      </trkpt>
      <trkpt lat="45.62047" lon="2.80966">
        <ele>1327</ele>
        <time>2018-07-10T23:35:12Z</time>
      </trkpt>
      <trkpt lat="45.62042" lon="2.80977">
        <ele>1328</ele>
        <time>2018-07-10T23:36:12Z</time>
      </trkpt>
      <trkpt lat="45.62042" lon="2.80984">
        <ele>1327</ele>
        <time>2018-07-10T23:37:12Z</time>
      </trkpt>
      <trkpt lat="45.6204" lon="2.81">
        <ele>1327</ele>
        <time>2018-07-10T23:38:12Z</time>
      </trkpt>
      <trkpt lat="45.62039" lon="2.81">
        <ele>1327</ele>
        <time>2018-07-10T23:39:12Z</time>
      </trkpt>
      <trkpt lat="45.6204" lon="2.80998">
        <ele>1327</ele>
        <time>2018-07-10T23:40:12Z</time>
      </trkpt>
      <trkpt lat="45.62042" lon="2.81001">
        <ele>1326</ele>
        <time>2018-07-10T23:41:12Z</time>
      </trkpt>
      <trkpt lat="45.62042" lon="2.81016">
        <ele>1326</ele>
        <time>2018-07-10T23:42:12Z</time>
      </trkpt>
      <trkpt lat="45.62042" lon="2.8102">
        <ele>1326</ele>
        <time>2018-07-10T23:43:12Z</time>
      </trkpt>
      <trkpt lat="45.62041" lon="2.81028">
        <ele>1326</ele>
        <time>2018-07-10T23:44:12Z</time>
      </trkpt>
      <trkpt lat="45.62041" lon="2.81044">
        <ele>1326</ele>
        <time>2018-07-10T23:45:12Z</time>
      </trkpt>
      <trkpt lat="45.62043" lon="2.81058">
        <ele>1325</ele>
        <time>2018-07-10T23:46:12Z</time>
      </trkpt>
      <trkpt lat="45.62044" lon="2.81069">
        <ele>1324</ele>
        <time>2018-07-10T23:47:12Z</time>
      </trkpt>
      <trkpt lat="45.62043" lon="2.81087">
        <ele>1324</ele>
        <time>2018-07-10T23:48:12Z</time>
      </trkpt>
      <trkpt lat="45.62041" lon="2.81095">
        <ele>1324</ele>
        <time>2018-07-10T23:49:12Z</time>
      </trkpt>
      <trkpt lat="45.62043" lon="2.81107">
        <ele>1324</ele>
        <time>2018-07-10T23:50:12Z</time>
      </trkpt>
      <trkpt lat="45.62043" lon="2.81113">
        <ele>1324</ele>
        <time>2018-07-10T23:51:12Z</time>
      </trkpt>
      <trkpt lat="45.62041" lon="2.81124">
        <ele>1324</ele>
        <time>2018-07-10T23:52:12Z</time>
      </trkpt>
      <trkpt lat="45.62042" lon="2.81132">
        <ele>1324</ele>
        <time>2018-07-10T23:53:12Z</time>
      </trkpt>
      <trkpt lat="45.62043" lon="2.81146">
        <ele>1323</ele>
        <time>2018-07-10T23:54:12Z</time>
      </trkpt>
      <trkpt lat="45.62047" lon="2.81166">
        <ele>1322</ele>
        <time>2018-07-10T23:55:12Z</time>
      </trkpt>
      <trkpt lat="45.6205" lon="2.81176">
        <ele>1321</ele>
        <time>2018-07-10T23:56:12Z</time>
      </trkpt>
      <trkpt lat="45.62052" lon="2.81216">
        <ele>1321</ele>
        <time>2018-07-10T23:57:12Z</time>
      </trkpt>
      <trkpt lat="45.62055" lon="2.81225">
        <ele>1320</ele>
        <time>2018-07-10T23:58:12Z</time>
      </trkpt>
      <trkpt lat="45.62055" lon="2.81261">
        <ele>1319</ele>
        <time>2018-07-10T23:59:12Z</time>
      </trkpt>
      <trkpt lat="45.62055" lon="2.81272">
        <ele>1319</ele>
        <time>2018-07-11T00:00:12Z</time>
      </trkpt>
      <trkpt lat="45.62057" lon="2.81286">
        <ele>1318</ele>
        <time>2018-07-11T00:01:12Z</time>
      </trkpt>
      <trkpt lat="45.62058" lon="2.81297">
        <ele>1318</ele>
        <time>2018-07-11T00:02:12Z</time>
      </trkpt>
      <trkpt lat="45.62058" lon="2.8131">
        <ele>1317</ele>
        <time>2018-07-11T00:03:12Z</time>
      </trkpt>
      <trkpt lat="45.62058" lon="2.81323">
        <ele>1317</ele>
        <time>2018-07-11T00:04:12Z</time>
      </trkpt>
      <trkpt lat="45.62057" lon="2.81331">
        <ele>1317</ele>
        <time>2018-07-11T00:05:12Z</time>
      </trkpt>
      <trkpt lat="45.62059" lon="2.81342">
        <ele>1315</ele>
        <time>2018-07-11T00:06:12Z</time>
      </trkpt>
      <trkpt lat="45.62061" lon="2.81349">
        <ele>1314</ele>
        <time>2018-07-11T00:07:12Z</time>
      </trkpt>
      <trkpt lat="45.62063" lon="2.81361">
        <ele>1312</ele>
        <time>2018-07-11T00:08:12Z</time>
      </trkpt>
      <trkpt lat="45.62065" lon="2.81377">
        <ele>1310</ele>
        <time>2018-07-11T00:09:12Z</time>
      </trkpt>
      <trkpt lat="45.62064" lon="2.81395">
        <ele>1308</ele>
        <time>2018-07-11T00:10:12Z</time>
      </trkpt>
      <trkpt lat="45.62065" lon="2.81408">
        <ele>1306</ele>
        <time>2018-07-11T00:11:12Z</time>
      </trkpt>
      <trkpt lat="45.62061" lon="2.81415">
        <ele>1306</ele>
        <time>2018-07-11T00:12:12Z</time>
      </trkpt>
      <trkpt lat="45.6206" lon="2.81416">
        <ele>1306</ele>
        <time>2018-07-11T00:13:12Z</time>
      </trkpt>
      <trkpt lat="45.6206" lon="2.81416">
        <ele>1306</ele>
        <time>2018-07-11T00:14:12Z</time>
      </trkpt>
      <trkpt lat="45.6206" lon="2.81414">
        <ele>1306</ele>
        <time>2018-07-11T00:15:12Z</time>
      </trkpt>
      <trkpt lat="45.62061" lon="2.81418">
        <ele>1306</ele>
        <time>2018-07-11T00:16:12Z</time>
      </trkpt>
      <trkpt lat="45.6206" lon="2.81418">
        <ele>1306</ele>
        <time>2018-07-11T00:17:12Z</time>
      </trkpt>
      <trkpt lat="45.62057" lon="2.81429">
        <ele>1306</ele>
        <time>2018-07-11T00:18:12Z</time>
      </trkpt>
      <trkpt lat="45.62053" lon="2.81435">
        <ele>1306</ele>
        <time>2018-07-11T00:19:12Z</time>
      </trkpt>
      <trkpt lat="45.62049" lon="2.81465">
        <ele>1305</ele>
        <time>2018-07-11T00:20:12Z</time>
      </trkpt>
      <trkpt lat="45.62047" lon="2.8148">
        <ele>1305</ele>
        <time>2018-07-11T00:21:12Z</time>
      </trkpt>
      <trkpt lat="45.62047" lon="2.81504">
        <ele>1303</ele>
        <time>2018-07-11T00:22:12Z</time>
      </trkpt>
      <trkpt lat="45.62047" lon="2.81521">
        <ele>1301</ele>
        <time>2018-07-11T00:23:12Z</time>
      </trkpt>
      <trkpt lat="45.62042" lon="2.81532">
        <ele>1302</ele>
        <time>2018-07-11T00:24:12Z</time>
      </trkpt>
      <trkpt lat="45.62038" lon="2.81545">
        <ele>1301</ele>
        <time>2018-07-11T00:25:12Z</time>
      </trkpt>
      <trkpt lat="45.62032" lon="2.81551">
        <ele>1302</ele>
        <time>2018-07-11T00:26:12Z</time>
      </trkpt>
      <trkpt lat="45.62025" lon="2.8156">
        <ele>1302</ele>
        <time>2018-07-11T00:27:12Z</time>
      </trkpt>
      <trkpt lat="45.6202" lon="2.81571">
        <ele>1302</ele>
        <time>2018-07-11T00:28:12Z</time>
      </trkpt>
      <trkpt lat="45.62012" lon="2.81574">
        <ele>1302</ele>
        <time>2018-07-11T00:29:12Z</time>
      </trkpt>
      <trkpt lat="45.62014" lon="2.81559">
        <ele>1304</ele>
        <time>2018-07-11T00:30:12Z</time>
      </trkpt>
      <trkpt lat="45.62014" lon="2.81558">
        <ele>1304</ele>
        <time>2018-07-11T00:31:12Z</time>
      </trkpt>
      <trkpt lat="45.62017" lon="2.81563">
        <ele>1303</ele>
        <time>2018-07-11T00:32:12Z</time>
      </trkpt>
      <trkpt lat="45.62018" lon="2.81562">
        <ele>1303</ele>
        <time>2018-07-11T00:33:12Z</time>
      </trkpt>
      <trkpt lat="45.62017" lon="2.81561">
        <ele>1303</ele>
        <time>2018-07-11T00:34:12Z</time>
      </trkpt>
      <trkpt lat="45.62016" lon="2.81562">
        <ele>1303</ele>
        <time>2018-07-11T00:35:12Z</time>
      </trkpt>
      <trkpt lat="45.62017" lon="2.81563">
        <ele>1303</ele>
        <time>2018-07-11T00:36:12Z</time>
      </trkpt>
      <trkpt lat="45.6201" lon="2.81562">
        <ele>1304</ele>
        <time>2018-07-11T00:37:12Z</time>
      </trkpt>
      <trkpt lat="45.6201" lon="2.8156">
        <ele>1305</ele>
        <time>2018-07-11T00:38:12Z</time>
      </trkpt>
      <trkpt lat="45.6201" lon="2.81559">
        <ele>1305</ele>
        <time>2018-07-11T00:39:12Z</time>
      </trkpt>
      <trkpt lat="45.62011" lon="2.8156">
        <ele>1304</ele>
        <time>2018-07-11T00:40:12Z</time>
      </trkpt>
      <trkpt lat="45.62011" lon="2.81561">
        <ele>1304</ele>
        <time>2018-07-11T00:41:12Z</time>
      </trkpt>
      <trkpt lat="45.62011" lon="2.8156">
        <ele>1304</ele>
        <time>2018-07-11T00:42:12Z</time>
      </trkpt>
      <trkpt lat="45.62012" lon="2.81559">
        <ele>1304</ele>
        <time>2018-07-11T00:43:12Z</time>
      </trkpt>
      <trkpt lat="45.6201" lon="2.81559">
        <ele>1305</ele>
        <time>2018-07-11T00:44:12Z</time>
      </trkpt>
      <trkpt lat="45.6201" lon="2.81557">
        <ele>1305</ele>
        <time>2018-07-11T00:45:12Z</time>
      </trkpt>
      <trkpt lat="45.62011" lon="2.81555">
        <ele>1305</ele>
        <time>2018-07-11T00:46:12Z</time>
      </trkpt>
      <trkpt lat="45.62012" lon="2.81555">
        <ele>1305</ele>
        <time>2018-07-11T00:47:12Z</time>
      </trkpt>
      <trkpt lat="45.62011" lon="2.81556">
        <ele>1305</ele>
        <time>2018-07-11T00:48:12Z</time>
      </trkpt>
      <trkpt lat="45.62013" lon="2.81555">
        <ele>1305</ele>
        <time>2018-07-11T00:49:12Z</time>
      </trkpt>
      <trkpt lat="45.62015" lon="2.81555">
        <ele>1304</ele>
        <time>2018-07-11T00:50:12Z</time>
      </trkpt>
      <trkpt lat="45.62017" lon="2.81557">
        <ele>1304</ele>
        <time>2018-07-11T00:51:12Z</time>
      </trkpt>
      <trkpt lat="45.62018" lon="2.81557">
        <ele>1304</ele>
        <time>2018-07-11T00:52:12Z</time>
      </trkpt>
      <trkpt lat="45.62018" lon="2.81558">
        <ele>1303</ele>
        <time>2018-07-11T00:53:12Z</time>
      </trkpt>
      <trkpt lat="45.62017" lon="2.81559">
        <ele>1304</ele>
        <time>2018-07-11T00:54:12Z</time>
      </trkpt>
      <trkpt lat="45.62016" lon="2.8156">
        <ele>1304</ele>
        <time>2018-07-11T00:55:12Z</time>
      </trkpt>
      <trkpt lat="45.62007" lon="2.81564">
        <ele>1305</ele>
        <time>2018-07-11T00:56:12Z</time>
      </trkpt>
      <trkpt lat="45.62001" lon="2.81565">
        <ele>1305</ele>
        <time>2018-07-11T00:57:12Z</time>
      </trkpt>
      <trkpt lat="45.61992" lon="2.81563">
        <ele>1305</ele>
        <time>2018-07-11T00:58:12Z</time>
      </trkpt>
      <trkpt lat="45.61991" lon="2.81562">
        <ele>1306</ele>
        <time>2018-07-11T00:59:12Z</time>
      </trkpt>
      <trkpt lat="45.61984" lon="2.81559">
        <ele>1306</ele>
        <time>2018-07-11T01:00:12Z</time>
      </trkpt>
      <trkpt lat="45.61978" lon="2.81563">
        <ele>1305</ele>
        <time>2018-07-11T01:01:12Z</time>
      </trkpt>
      <trkpt lat="45.61973" lon="2.81568">
        <ele>1304</ele>
        <time>2018-07-11T01:02:12Z</time>
      </trkpt>
      <trkpt lat="45.61969" lon="2.81557">
        <ele>1305</ele>
        <time>2018-07-11T01:03:12Z</time>
      </trkpt>
      <trkpt lat="45.61963" lon="2.81549">
        <ele>1306</ele>
        <time>2018-07-11T01:04:12Z</time>
      </trkpt>
      <trkpt lat="45.61957" lon="2.81546">
        <ele>1306</ele>
        <time>2018-07-11T01:05:12Z</time>
      </trkpt>
      <trkpt lat="45.61954" lon="2.81542">
        <ele>1306</ele>
        <time>2018-07-11T01:06:12Z</time>
      </trkpt>
      <trkpt lat="45.61946" lon="2.81544">
        <ele>1305</ele>
        <time>2018-07-11T01:07:12Z</time>
      </trkpt>
      <trkpt lat="45.61943" lon="2.81545">
        <ele>1305</ele>
        <time>2018-07-11T01:08:12Z</time>
      </trkpt>
      <trkpt lat="45.61936" lon="2.8154">
        <ele>1305</ele>
        <time>2018-07-11T01:09:12Z</time>
      </trkpt>
      <trkpt lat="45.61921" lon="2.81536">
        <ele>1305</ele>
        <time>2018-07-11T01:10:12Z</time>
      </trkpt>
      <trkpt lat="45.61912" lon="2.81524">
        <ele>1306</ele>
        <time>2018-07-11T01:11:12Z</time>
      </trkpt>
      <trkpt lat="45.61908" lon="2.81512">
        <ele>1308</ele>
        <time>2018-07-11T01:12:12Z</time>
      </trkpt>
      <trkpt lat="45.61908" lon="2.815">
        <ele>1309</ele>
        <time>2018-07-11T01:13:12Z</time>
      </trkpt>
      <trkpt lat="45.61905" lon="2.8149">
        <ele>1310</ele>
        <time>2018-07-11T01:14:12Z</time>
      </trkpt>
      <trkpt lat="45.61901" lon="2.81475">
        <ele>1310</ele>
        <time>2018-07-11T01:15:12Z</time>
      </trkpt>
      <trkpt lat="45.61898" lon="2.81451">
        <ele>1311</ele>
        <time>2018-07-11T01:16:12Z</time>
      </trkpt>
      <trkpt lat="45.61891" lon="2.81452">
        <ele>1311</ele>
        <time>2018-07-11T01:17:12Z</time>
      </trkpt>
      <trkpt lat="45.61892" lon="2.81445">
        <ele>1311</ele>
        <time>2018-07-11T01:18:12Z</time>
      </trkpt>
      <trkpt lat="45.61892" lon="2.81445">
        <ele>1311</ele>
        <time>2018-07-11T01:19:12Z</time>
      </trkpt>
      <trkpt lat="45.61893" lon="2.81444">
        <ele>1311</ele>
        <time>2018-07-11T01:20:12Z</time>
      </trkpt>
      <trkpt lat="45.61892" lon="2.81445">
        <ele>1311</ele>
        <time>2018-07-11T01:21:12Z</time>
      </trkpt>
      <trkpt lat="45.61892" lon="2.81447">
        <ele>1311</ele>
        <time>2018-07-11T01:22:12Z</time>
      </trkpt>
      <trkpt lat="45.61893" lon="2.81448">
        <ele>1311</ele>
        <time>2018-07-11T01:23:12Z</time>
      </trkpt>
      <trkpt lat="45.61894" lon="2.81449">
        <ele>1311</ele>
        <time>2018-07-11T01:24:12Z</time>
      </trkpt>
      <trkpt lat="45.61895" lon="2.81449">
        <ele>1311</ele>
        <time>2018-07-11T01:25:12Z</time>
      </trkpt>
      <trkpt lat="45.61896" lon="2.81449">
        <ele>1311</ele>
        <time>2018-07-11T01:26:12Z</time>
      </trkpt>
      <trkpt lat="45.61896" lon="2.81447">
        <ele>1311</ele>
        <time>2018-07-11T01:27:12Z</time>
      </trkpt>
      <trkpt lat="45.61887" lon="2.81398">
        <ele>1314</ele>
        <time>2018-07-11T01:28:12Z</time>
      </trkpt>
      <trkpt lat="45.61889" lon="2.81405">
        <ele>1314</ele>
        <time>2018-07-11T01:29:12Z</time>
      </trkpt>
      <trkpt lat="45.61886" lon="2.81392">
        <ele>1315</ele>
        <time>2018-07-11T01:30:12Z</time>
      </trkpt>
      <trkpt lat="45.61883" lon="2.81389">
        <ele>1315</ele>
        <time>2018-07-11T01:31:12Z</time>
      </trkpt>
      <trkpt lat="45.61881" lon="2.81388">
        <ele>1315</ele>
        <time>2018-07-11T01:32:12Z</time>
      </trkpt>
      <trkpt lat="45.61879" lon="2.81386">
        <ele>1315</ele>
        <time>2018-07-11T01:33:12Z</time>
      </trkpt>
      <trkpt lat="45.61872" lon="2.81383">
        <ele>1315</ele>
        <time>2018-07-11T01:34:12Z</time>
      </trkpt>
      <trkpt lat="45.61862" lon="2.81378">
        <ele>1315</ele>
        <time>2018-07-11T01:35:12Z</time>
      </trkpt>
      <trkpt lat="45.61851" lon="2.81373">
        <ele>1315</ele>
        <time>2018-07-11T01:36:12Z</time>
      </trkpt>
      <trkpt lat="45.61839" lon="2.81363">
        <ele>1316</ele>
        <time>2018-07-11T01:37:12Z</time>
      </trkpt>
      <trkpt lat="45.61828" lon="2.81353">
        <ele>1316</ele>
        <time>2018-07-11T01:38:12Z</time>
      </trkpt>
      <trkpt lat="45.61812" lon="2.81345">
        <ele>1316</ele>
        <time>2018-07-11T01:39:12Z</time>
      </trkpt>
      <trkpt lat="45.61805" lon="2.81333">
        <ele>1317</ele>
        <time>2018-07-11T01:40:12Z</time>
      </trkpt>
      <trkpt lat="45.61798" lon="2.81329">
        <ele>1317</ele>
        <time>2018-07-11T01:41:12Z</time>
      </trkpt>
      <trkpt lat="45.61788" lon="2.81323">
        <ele>1318</ele>
        <time>2018-07-11T01:42:12Z</time>
      </trkpt>
      <trkpt lat="45.61784" lon="2.81318">
        <ele>1318</ele>
        <time>2018-07-11T01:43:12Z</time>
      </trkpt>
      <trkpt lat="45.61779" lon="2.81312">
        <ele>1319</ele>
        <time>2018-07-11T01:44:12Z</time>
      </trkpt>
      <trkpt lat="45.61769" lon="2.8131">
        <ele>1319</ele>
        <time>2018-07-11T01:45:12Z</time>
      </trkpt>
      <trkpt lat="45.61761" lon="2.81299">
        <ele>1320</ele>
        <time>2018-07-11T01:46:12Z</time>
      </trkpt>
      <trkpt lat="45.61747" lon="2.81294">
        <ele>1320</ele>
        <time>2018-07-11T01:47:12Z</time>
      </trkpt>
      <trkpt lat="45.61733" lon="2.81287">
        <ele>1320</ele>
        <time>2018-07-11T01:48:12Z</time>
      </trkpt>
      <trkpt lat="45.61724" lon="2.81281">
        <ele>1321</ele>
        <time>2018-07-11T01:49:12Z</time>
      </trkpt>
      <trkpt lat="45.61718" lon="2.81274">
        <ele>1321</ele>
        <time>2018-07-11T01:50:12Z</time>
      </trkpt>
      <trkpt lat="45.61713" lon="2.81268">
        <ele>1321</ele>
        <time>2018-07-11T01:51:12Z</time>
      </trkpt>
      <trkpt lat="45.6171" lon="2.81263">
        <ele>1322</ele>
        <time>2018-07-11T01:52:12Z</time>
      </trkpt>
      <trkpt lat="45.61709" lon="2.81262">
        <ele>1322</ele>
        <time>2018-07-11T01:53:12Z</time>
      </trkpt>
      <trkpt lat="45.61709" lon="2.81263">
        <ele>1322</ele>
        <time>2018-07-11T01:54:12Z</time>
      </trkpt>
      <trkpt lat="45.61705" lon="2.81266">
        <ele>1321</ele>
        <time>2018-07-11T01:55:12Z</time>
      </trkpt>
      <trkpt lat="45.61694" lon="2.81258">
        <ele>1322</ele>
        <time>2018-07-11T01:56:12Z</time>
      </trkpt>
      <trkpt lat="45.61679" lon="2.81251">
        <ele>1321</ele>
        <time>2018-07-11T01:57:12Z</time>
      </trkpt>
      <trkpt lat="45.61669" lon="2.81246">
        <ele>1321</ele>
        <time>2018-07-11T01:58:12Z</time>
      </trkpt>
      <trkpt lat="45.61662" lon="2.81232">
        <ele>1322</ele>
        <time>2018-07-11T01:59:12Z</time>
      </trkpt>
      <trkpt lat="45.61654" lon="2.81225">
        <ele>1322</ele>
        <time>2018-07-11T02:00:12Z</time>
      </trkpt>
      <trkpt lat="45.61642" lon="2.81215">
        <ele>1321</ele>
        <time>2018-07-11T02:01:12Z</time>
      </trkpt>
      <trkpt lat="45.61631" lon="2.81212">
        <ele>1321</ele>
        <time>2018-07-11T02:02:12Z</time>
      </trkpt>
      <trkpt lat="45.61621" lon="2.81206">
        <ele>1321</ele>
        <time>2018-07-11T02:03:12Z</time>
      </trkpt>
      <trkpt lat="45.61606" lon="2.812">
        <ele>1320</ele>
        <time>2018-07-11T02:04:12Z</time>
      </trkpt>
      <trkpt lat="45.61597" lon="2.81192">
        <ele>1320</ele>
        <time>2018-07-11T02:05:12Z</time>
      </trkpt>
      <trkpt lat="45.61588" lon="2.81191">
        <ele>1320</ele>
        <time>2018-07-11T02:06:12Z</time>
      </trkpt>
      <trkpt lat="45.61589" lon="2.8119">
        <ele>1320</ele>
        <time>2018-07-11T02:07:12Z</time>
      </trkpt>
      <trkpt lat="45.61591" lon="2.81188">
        <ele>1320</ele>
        <time>2018-07-11T02:08:12Z</time>
      </trkpt>
      <trkpt lat="45.6159" lon="2.81189">
        <ele>1320</ele>
        <time>2018-07-11T02:09:12Z</time>
      </trkpt>
      <trkpt lat="45.61591" lon="2.81184">
        <ele>1321</ele>
        <time>2018-07-11T02:10:12Z</time>
      </trkpt>
      <trkpt lat="45.61591" lon="2.81186">
        <ele>1321</ele>
        <time>2018-07-11T02:11:12Z</time>
      </trkpt>
      <trkpt lat="45.6159" lon="2.81189">
        <ele>1320</ele>
        <time>2018-07-11T02:12:12Z</time>
      </trkpt>
      <trkpt lat="45.61581" lon="2.81185">
        <ele>1320</ele>
        <time>2018-07-11T02:13:12Z</time>
      </trkpt>
      <trkpt lat="45.61572" lon="2.8118">
        <ele>1320</ele>
        <time>2018-07-11T02:14:12Z</time>
      </trkpt>
      <trkpt lat="45.61567" lon="2.81175">
        <ele>1320</ele>
        <time>2018-07-11T02:15:12Z</time>
      </trkpt>
      <trkpt lat="45.6156" lon="2.81167">
        <ele>1320</ele>
        <time>2018-07-11T02:16:12Z</time>
      </trkpt>
      <trkpt lat="45.61551" lon="2.8116">
        <ele>1319</ele>
        <time>2018-07-11T02:17:12Z</time>
      </trkpt>
      <trkpt lat="45.61541" lon="2.8115">
        <ele>1318</ele>
        <time>2018-07-11T02:18:12Z</time>
      </trkpt>
      <trkpt lat="45.61531" lon="2.81144">
        <ele>1318</ele>
        <time>2018-07-11T02:19:12Z</time>
      </trkpt>
      <trkpt lat="45.6152" lon="2.81135">
        <ele>1317</ele>
        <time>2018-07-11T02:20:12Z</time>
      </trkpt>
      <trkpt lat="45.615" lon="2.81112">
        <ele>1316</ele>
        <time>2018-07-11T02:21:12Z</time>
      </trkpt>
      <trkpt lat="45.61493" lon="2.81104">
        <ele>1316</ele>
        <time>2018-07-11T02:22:12Z</time>
      </trkpt>
      <trkpt lat="45.61483" lon="2.81108">
        <ele>1316</ele>
        <time>2018-07-11T02:23:12Z</time>
      </trkpt>
      <trkpt lat="45.6147" lon="2.8111">
        <ele>1316</ele>
        <time>2018-07-11T02:24:12Z</time>
      </trkpt>
      <trkpt lat="45.61458" lon="2.81109">
        <ele>1316</ele>
        <time>2018-07-11T02:25:12Z</time>
      </trkpt>
      <trkpt lat="45.61445" lon="2.81103">
        <ele>1317</ele>
        <time>2018-07-11T02:26:12Z</time>
      </trkpt>
      <trkpt lat="45.61434" lon="2.81101">
        <ele>1317</ele>
        <time>2018-07-11T02:27:12Z</time>
      </trkpt>
      <trkpt lat="45.61422" lon="2.81108">
        <ele>1317</ele>
        <time>2018-07-11T02:28:12Z</time>
      </trkpt>
      <trkpt lat="45.61414" lon="2.81122">
        <ele>1317</ele>
        <time>2018-07-11T02:29:12Z</time>
      </trkpt>
      <trkpt lat="45.61408" lon="2.81133">
        <ele>1317</ele>
        <time>2018-07-11T02:30:12Z</time>
      </trkpt>
      <trkpt lat="45.61396" lon="2.81162">
        <ele>1318</ele>
        <time>2018-07-11T02:31:12Z</time>
      </trkpt>
      <trkpt lat="45.61391" lon="2.81174">
        <ele>1319</ele>
        <time>2018-07-11T02:32:12Z</time>
      </trkpt>
      <trkpt lat="45.61387" lon="2.81188">
        <ele>1319</ele>
        <time>2018-07-11T02:33:12Z</time>
      </trkpt>
      <trkpt lat="45.61381" lon="2.81202">
        <ele>1320</ele>
        <time>2018-07-11T02:34:12Z</time>
      </trkpt>
      <trkpt lat="45.61375" lon="2.81217">
        <ele>1320</ele>
        <time>2018-07-11T02:35:12Z</time>
      </trkpt>
      <trkpt lat="45.6137" lon="2.81228">
        <ele>1321</ele>
        <time>2018-07-11T02:36:12Z</time>
      </trkpt>
      <trkpt lat="45.61363" lon="2.81239">
        <ele>1322</ele>
        <time>2018-07-11T02:37:12Z</time>
      </trkpt>
      <trkpt lat="45.6136" lon="2.81246">
        <ele>1322</ele>
        <time>2018-07-11T02:38:12Z</time>
      </trkpt>
      <trkpt lat="45.61359" lon="2.81249">
        <ele>1322</ele>
        <time>2018-07-11T02:39:12Z</time>
      </trkpt>
      <trkpt lat="45.61359" lon="2.81248">
        <ele>1322</ele>
        <time>2018-07-11T02:40:12Z</time>
      </trkpt>
      <trkpt lat="45.61358" lon="2.81249">
        <ele>1322</ele>
        <time>2018-07-11T02:41:12Z</time>
      </trkpt>
      <trkpt lat="45.61358" lon="2.81249">
        <ele>1322</ele>
        <time>2018-07-11T02:42:12Z</time>
      </trkpt>
      <trkpt lat="45.61358" lon="2.81247">
        <ele>1322</ele>
        <time>2018-07-11T02:43:12Z</time>
      </trkpt>
      <trkpt lat="45.61357" lon="2.81247">
        <ele>1322</ele>
        <time>2018-07-11T02:44:12Z</time>
      </trkpt>
      <trkpt lat="45.61356" lon="2.81246">
        <ele>1323</ele>
        <time>2018-07-11T02:45:12Z</time>
      </trkpt>
      <trkpt lat="45.61357" lon="2.81247">
        <ele>1322</ele>
        <time>2018-07-11T02:46:12Z</time>
      </trkpt>
      <trkpt lat="45.61358" lon="2.81247">
        <ele>1322</ele>
        <time>2018-07-11T02:47:12Z</time>
      </trkpt>
      <trkpt lat="45.61357" lon="2.81249">
        <ele>1322</ele>
        <time>2018-07-11T02:48:12Z</time>
      </trkpt>
      <trkpt lat="45.61352" lon="2.81258">
        <ele>1323</ele>
        <time>2018-07-11T02:49:12Z</time>
      </trkpt>
      <trkpt lat="45.61347" lon="2.81274">
        <ele>1323</ele>
        <time>2018-07-11T02:50:12Z</time>
      </trkpt>
      <trkpt lat="45.6134" lon="2.81288">
        <ele>1323</ele>
        <time>2018-07-11T02:51:12Z</time>
      </trkpt>
      <trkpt lat="45.61333" lon="2.81302">
        <ele>1324</ele>
        <time>2018-07-11T02:52:12Z</time>
      </trkpt>
      <trkpt lat="45.61289" lon="2.8136">
        <ele>1326</ele>
        <time>2018-07-11T02:53:12Z</time>
      </trkpt>
      <trkpt lat="45.61286" lon="2.81367">
        <ele>1326</ele>
        <time>2018-07-11T02:54:12Z</time>
      </trkpt>
      <trkpt lat="45.61283" lon="2.81378">
        <ele>1325</ele>
        <time>2018-07-11T02:55:12Z</time>
      </trkpt>
      <trkpt lat="45.6128" lon="2.81408">
        <ele>1324</ele>
        <time>2018-07-11T02:56:12Z</time>
      </trkpt>
      <trkpt lat="45.61276" lon="2.81421">
        <ele>1324</ele>
        <time>2018-07-11T02:57:12Z</time>
      </trkpt>
      <trkpt lat="45.61268" lon="2.8143">
        <ele>1324</ele>
        <time>2018-07-11T02:58:12Z</time>
      </trkpt>
      <trkpt lat="45.61256" lon="2.81454">
        <ele>1324</ele>
        <time>2018-07-11T02:59:12Z</time>
      </trkpt>
      <trkpt lat="45.61246" lon="2.81465">
        <ele>1324</ele>
        <time>2018-07-11T03:00:12Z</time>
      </trkpt>
      <trkpt lat="45.61235" lon="2.81474">
        <ele>1324</ele>
        <time>2018-07-11T03:01:12Z</time>
      </trkpt>
      <trkpt lat="45.61223" lon="2.81478">
        <ele>1324</ele>
        <time>2018-07-11T03:02:12Z</time>
      </trkpt>
      <trkpt lat="45.61209" lon="2.81485">
        <ele>1324</ele>
        <time>2018-07-11T03:03:12Z</time>
      </trkpt>
      <trkpt lat="45.61199" lon="2.81498">
        <ele>1324</ele>
        <time>2018-07-11T03:04:12Z</time>
      </trkpt>
      <trkpt lat="45.61191" lon="2.81511">
        <ele>1323</ele>
        <time>2018-07-11T03:05:12Z</time>
      </trkpt>
      <trkpt lat="45.61185" lon="2.81524">
        <ele>1322</ele>
        <time>2018-07-11T03:06:12Z</time>
      </trkpt>
      <trkpt lat="45.6118" lon="2.8154">
        <ele>1320</ele>
        <time>2018-07-11T03:07:12Z</time>
      </trkpt>
      <trkpt lat="45.61173" lon="2.81547">
        <ele>1320</ele>
        <time>2018-07-11T03:08:12Z</time>
      </trkpt>
      <trkpt lat="45.61162" lon="2.81556">
        <ele>1320</ele>
        <time>2018-07-11T03:09:12Z</time>
      </trkpt>
      <trkpt lat="45.61151" lon="2.81561">
        <ele>1320</ele>
        <time>2018-07-11T03:10:12Z</time>
      </trkpt>
      <trkpt lat="45.61133" lon="2.81566">
        <ele>1320</ele>
        <time>2018-07-11T03:11:12Z</time>
      </trkpt>
      <trkpt lat="45.61121" lon="2.81572">
        <ele>1320</ele>
        <time>2018-07-11T03:12:12Z</time>
      </trkpt>
      <trkpt lat="45.61109" lon="2.81584">
        <ele>1319</ele>
        <time>2018-07-11T03:13:12Z</time>
      </trkpt>
      <trkpt lat="45.61102" lon="2.81595">
        <ele>1317</ele>
        <time>2018-07-11T03:14:12Z</time>
      </trkpt>
      <trkpt lat="45.61086" lon="2.81604">
        <ele>1316</ele>
        <time>2018-07-11T03:15:12Z</time>
      </trkpt>
      <trkpt lat="45.61072" lon="2.816">
        <ele>1317</ele>
        <time>2018-07-11T03:16:12Z</time>
      </trkpt>
      <trkpt lat="45.61063" lon="2.81598">
        <ele>1318</ele>
        <time>2018-07-11T03:17:12Z</time>
      </trkpt>
      <trkpt lat="45.61057" lon="2.816">
        <ele>1318</ele>
        <time>2018-07-11T03:18:12Z</time>
      </trkpt>
      <trkpt lat="45.61045" lon="2.816">
        <ele>1318</ele>
        <time>2018-07-11T03:19:12Z</time>
      </trkpt>
      <trkpt lat="45.61032" lon="2.81602">
        <ele>1319</ele>
        <time>2018-07-11T03:20:12Z</time>
      </trkpt>
      <trkpt lat="45.61019" lon="2.81598">
        <ele>1320</ele>
        <time>2018-07-11T03:21:12Z</time>
      </trkpt>
      <trkpt lat="45.61008" lon="2.81598">
        <ele>1320</ele>
        <time>2018-07-11T03:22:12Z</time>
      </trkpt>
      <trkpt lat="45.60996" lon="2.81599">
        <ele>1321</ele>
        <time>2018-07-11T03:23:12Z</time>
      </trkpt>
      <trkpt lat="45.60988" lon="2.81607">
        <ele>1320</ele>
        <time>2018-07-11T03:24:12Z</time>
      </trkpt>
      <trkpt lat="45.60978" lon="2.81614">
        <ele>1320</ele>
        <time>2018-07-11T03:25:12Z</time>
      </trkpt>
      <trkpt lat="45.6097" lon="2.81622">
        <ele>1319</ele>
        <time>2018-07-11T03:26:12Z</time>
      </trkpt>
      <trkpt lat="45.60955" lon="2.81633">
        <ele>1319</ele>
        <time>2018-07-11T03:27:12Z</time>
      </trkpt>
      <trkpt lat="45.60946" lon="2.81637">
        <ele>1320</ele>
        <time>2018-07-11T03:28:12Z</time>
      </trkpt>
      <trkpt lat="45.60929" lon="2.81646">
        <ele>1321</ele>
        <time>2018-07-11T03:29:12Z</time>
      </trkpt>
      <trkpt lat="45.60903" lon="2.81657">
        <ele>1322</ele>
        <time>2018-07-11T03:30:12Z</time>
      </trkpt>
      <trkpt lat="45.60893" lon="2.81666">
        <ele>1322</ele>
        <time>2018-07-11T03:31:12Z</time>
      </trkpt>
      <trkpt lat="45.60887" lon="2.8168">
        <ele>1322</ele>
        <time>2018-07-11T03:32:12Z</time>
      </trkpt>
      <trkpt lat="45.60877" lon="2.81691">
        <ele>1322</ele>
        <time>2018-07-11T03:33:12Z</time>
      </trkpt>
      <trkpt lat="45.6087" lon="2.81707">
        <ele>1322</ele>
        <time>2018-07-11T03:34:12Z</time>
      </trkpt>
      <trkpt lat="45.60861" lon="2.81717">
        <ele>1322</ele>
        <time>2018-07-11T03:35:12Z</time>
      </trkpt>
      <trkpt lat="45.60851" lon="2.81732">
        <ele>1322</ele>
        <time>2018-07-11T03:36:12Z</time>
      </trkpt>
      <trkpt lat="45.60843" lon="2.81742">
        <ele>1322</ele>
        <time>2018-07-11T03:37:12Z</time>
      </trkpt>
      <trkpt lat="45.60834" lon="2.81756">
        <ele>1322</ele>
        <time>2018-07-11T03:38:12Z</time>
      </trkpt>
      <trkpt lat="45.60822" lon="2.8177">
        <ele>1322</ele>
        <time>2018-07-11T03:39:12Z</time>
      </trkpt>
      <trkpt lat="45.60815" lon="2.8179">
        <ele>1321</ele>
        <time>2018-07-11T03:40:12Z</time>
      </trkpt>
      <trkpt lat="45.60811" lon="2.81821">
        <ele>1319</ele>
        <time>2018-07-11T03:41:12Z</time>
      </trkpt>
      <trkpt lat="45.60809" lon="2.8183">
        <ele>1318</ele>
        <time>2018-07-11T03:42:12Z</time>
      </trkpt>
      <trkpt lat="45.60802" lon="2.81851">
        <ele>1317</ele>
        <time>2018-07-11T03:43:12Z</time>
      </trkpt>
      <trkpt lat="45.60796" lon="2.81874">
        <ele>1316</ele>
        <time>2018-07-11T03:44:12Z</time>
      </trkpt>
      <trkpt lat="45.60792" lon="2.81883">
        <ele>1316</ele>
        <time>2018-07-11T03:45:12Z</time>
      </trkpt>
      <trkpt lat="45.60787" lon="2.81892">
        <ele>1316</ele>
        <time>2018-07-11T03:46:12Z</time>
      </trkpt>
      <trkpt lat="45.6078" lon="2.81903">
        <ele>1316</ele>
        <time>2018-07-11T03:47:12Z</time>
      </trkpt>
      <trkpt lat="45.60772" lon="2.8192">
        <ele>1315</ele>
        <time>2018-07-11T03:48:12Z</time>
      </trkpt>
      <trkpt lat="45.60767" lon="2.81934">
        <ele>1314</ele>
        <time>2018-07-11T03:49:12Z</time>
      </trkpt>
      <trkpt lat="45.60747" lon="2.81956">
        <ele>1313</ele>
        <time>2018-07-11T03:50:12Z</time>
      </trkpt>
      <trkpt lat="45.60741" lon="2.81964">
        <ele>1312</ele>
        <time>2018-07-11T03:51:12Z</time>
      </trkpt>
      <trkpt lat="45.60728" lon="2.81972">
        <ele>1311</ele>
        <time>2018-07-11T03:52:12Z</time>
      </trkpt>
      <trkpt lat="45.60721" lon="2.81986">
        <ele>1310</ele>
        <time>2018-07-11T03:53:12Z</time>
      </trkpt>
      <trkpt lat="45.60706" lon="2.81995">
        <ele>1309</ele>
        <time>2018-07-11T03:54:12Z</time>
      </trkpt>
      <trkpt lat="45.60697" lon="2.81998">
        <ele>1309</ele>
        <time>2018-07-11T03:55:12Z</time>
      </trkpt>
      <trkpt lat="45.60685" lon="2.82">
        <ele>1309</ele>
        <time>2018-07-11T03:56:12Z</time>
      </trkpt>
      <trkpt lat="45.60676" lon="2.82002">
        <ele>1309</ele>
        <time>2018-07-11T03:57:12Z</time>
      </trkpt>
      <trkpt lat="45.60665" lon="2.81999">
        <ele>1309</ele>
        <time>2018-07-11T03:58:12Z</time>
      </trkpt>
      <trkpt lat="45.60656" lon="2.81996">
        <ele>1308</ele>
        <time>2018-07-11T03:59:12Z</time>
      </trkpt>
      <trkpt lat="45.60643" lon="2.81988">
        <ele>1307</ele>
        <time>2018-07-11T04:00:12Z</time>
      </trkpt>
      <trkpt lat="45.60638" lon="2.81987">
        <ele>1307</ele>
        <time>2018-07-11T04:01:12Z</time>
      </trkpt>
      <trkpt lat="45.60629" lon="2.81982">
        <ele>1306</ele>
        <time>2018-07-11T04:02:12Z</time>
      </trkpt>
      <trkpt lat="45.60613" lon="2.81968">
        <ele>1306</ele>
        <time>2018-07-11T04:03:12Z</time>
      </trkpt>
      <trkpt lat="45.60599" lon="2.81963">
        <ele>1305</ele>
        <time>2018-07-11T04:04:12Z</time>
      </trkpt>
      <trkpt lat="45.60586" lon="2.81966">
        <ele>1304</ele>
        <time>2018-07-11T04:05:12Z</time>
      </trkpt>
      <trkpt lat="45.60575" lon="2.81972">
        <ele>1303</ele>
        <time>2018-07-11T04:06:12Z</time>
      </trkpt>
      <trkpt lat="45.60573" lon="2.81971">
        <ele>1302</ele>
        <time>2018-07-11T04:07:12Z</time>
      </trkpt>
      <trkpt lat="45.60572" lon="2.81973">
        <ele>1302</ele>
        <time>2018-07-11T04:08:12Z</time>
      </trkpt>
      <trkpt lat="45.60572" lon="2.8197">
        <ele>1302</ele>
        <time>2018-07-11T04:09:12Z</time>
      </trkpt>
      <trkpt lat="45.60569" lon="2.81971">
        <ele>1302</ele>
        <time>2018-07-11T04:10:12Z</time>
      </trkpt>
      <trkpt lat="45.6057" lon="2.81972">
        <ele>1302</ele>
        <time>2018-07-11T04:11:12Z</time>
      </trkpt>
      <trkpt lat="45.60576" lon="2.81982">
        <ele>1302</ele>
        <time>2018-07-11T04:12:12Z</time>
      </trkpt>
      <trkpt lat="45.60573" lon="2.81993">
        <ele>1301</ele>
        <time>2018-07-11T04:13:12Z</time>
      </trkpt>
      <trkpt lat="45.60573" lon="2.82007">
        <ele>1299</ele>
        <time>2018-07-11T04:14:12Z</time>
      </trkpt>
      <trkpt lat="45.60575" lon="2.82027">
        <ele>1298</ele>
        <time>2018-07-11T04:15:12Z</time>
      </trkpt>
      <trkpt lat="45.60573" lon="2.8204">
        <ele>1297</ele>
        <time>2018-07-11T04:16:12Z</time>
      </trkpt>
      <trkpt lat="45.60572" lon="2.82053">
        <ele>1296</ele>
        <time>2018-07-11T04:17:12Z</time>
      </trkpt>
      <trkpt lat="45.60571" lon="2.82069">
        <ele>1295</ele>
        <time>2018-07-11T04:18:12Z</time>
      </trkpt>
      <trkpt lat="45.60574" lon="2.82104">
        <ele>1293</ele>
        <time>2018-07-11T04:19:12Z</time>
      </trkpt>
      <trkpt lat="45.60577" lon="2.82122">
        <ele>1293</ele>
        <time>2018-07-11T04:20:12Z</time>
      </trkpt>
      <trkpt lat="45.60575" lon="2.8213">
        <ele>1292</ele>
        <time>2018-07-11T04:21:12Z</time>
      </trkpt>
      <trkpt lat="45.60574" lon="2.82127">
        <ele>1292</ele>
        <time>2018-07-11T04:22:12Z</time>
      </trkpt>
      <trkpt lat="45.60574" lon="2.82126">
        <ele>1292</ele>
        <time>2018-07-11T04:23:12Z</time>
      </trkpt>
      <trkpt lat="45.6058" lon="2.82139">
        <ele>1293</ele>
        <time>2018-07-11T04:24:12Z</time>
      </trkpt>
      <trkpt lat="45.60587" lon="2.82143">
        <ele>1293</ele>
        <time>2018-07-11T04:25:12Z</time>
      </trkpt>
      <trkpt lat="45.60587" lon="2.82144">
        <ele>1293</ele>
        <time>2018-07-11T04:26:12Z</time>
      </trkpt>
      <trkpt lat="45.60585" lon="2.82145">
        <ele>1293</ele>
        <time>2018-07-11T04:27:12Z</time>
      </trkpt>
      <trkpt lat="45.60589" lon="2.82148">
        <ele>1293</ele>
        <time>2018-07-11T04:28:12Z</time>
      </trkpt>
      <trkpt lat="45.606" lon="2.82154">
        <ele>1293</ele>
        <time>2018-07-11T04:29:12Z</time>
      </trkpt>
      <trkpt lat="45.60614" lon="2.82164">
        <ele>1294</ele>
        <time>2018-07-11T04:30:12Z</time>
      </trkpt>
      <trkpt lat="45.60622" lon="2.82171">
        <ele>1294</ele>
        <time>2018-07-11T04:31:12Z</time>
      </trkpt>
      <trkpt lat="45.60633" lon="2.8217">
        <ele>1294</ele>
        <time>2018-07-11T04:32:12Z</time>
      </trkpt>
      <trkpt lat="45.60645" lon="2.82171">
        <ele>1295</ele>
        <time>2018-07-11T04:33:12Z</time>
      </trkpt>
      <trkpt lat="45.60661" lon="2.82176">
        <ele>1295</ele>
        <time>2018-07-11T04:34:12Z</time>
      </trkpt>
      <trkpt lat="45.60673" lon="2.8218">
        <ele>1295</ele>
        <time>2018-07-11T04:35:12Z</time>
      </trkpt>
      <trkpt lat="45.60683" lon="2.82184">
        <ele>1294</ele>
        <time>2018-07-11T04:36:12Z</time>
      </trkpt>
      <trkpt lat="45.6069" lon="2.82187">
        <ele>1293</ele>
        <time>2018-07-11T04:37:12Z</time>
      </trkpt>
      <trkpt lat="45.60712" lon="2.82189">
        <ele>1292</ele>
        <time>2018-07-11T04:38:12Z</time>
      </trkpt>
      <trkpt lat="45.60719" lon="2.82184">
        <ele>1292</ele>
        <time>2018-07-11T04:39:12Z</time>
      </trkpt>
      <trkpt lat="45.60726" lon="2.82184">
        <ele>1292</ele>
        <time>2018-07-11T04:40:12Z</time>
      </trkpt>
      <trkpt lat="45.60742" lon="2.82193">
        <ele>1291</ele>
        <time>2018-07-11T04:41:12Z</time>
      </trkpt>
      <trkpt lat="45.60753" lon="2.82199">
        <ele>1289</ele>
        <time>2018-07-11T04:42:12Z</time>
      </trkpt>
      <trkpt lat="45.60783" lon="2.82203">
        <ele>1285</ele>
        <time>2018-07-11T04:43:12Z</time>
      </trkpt>
      <trkpt lat="45.60789" lon="2.82203">
        <ele>1284</ele>
        <time>2018-07-11T04:44:12Z</time>
      </trkpt>
      <trkpt lat="45.60795" lon="2.82205">
        <ele>1283</ele>
        <time>2018-07-11T04:45:12Z</time>
      </trkpt>
      <trkpt lat="45.60816" lon="2.82216">
        <ele>1280</ele>
        <time>2018-07-11T04:46:12Z</time>
      </trkpt>
      <trkpt lat="45.60828" lon="2.82222">
        <ele>1278</ele>
        <time>2018-07-11T04:47:12Z</time>
      </trkpt>
      <trkpt lat="45.60839" lon="2.82228">
        <ele>1277</ele>
        <time>2018-07-11T04:48:12Z</time>
      </trkpt>
      <trkpt lat="45.6086" lon="2.82234">
        <ele>1276</ele>
        <time>2018-07-11T04:49:12Z</time>
      </trkpt>
      <trkpt lat="45.60873" lon="2.82238">
        <ele>1275</ele>
        <time>2018-07-11T04:50:12Z</time>
      </trkpt>
      <trkpt lat="45.60881" lon="2.82236">
        <ele>1275</ele>
        <time>2018-07-11T04:51:12Z</time>
      </trkpt>
      <trkpt lat="45.60893" lon="2.82229">
        <ele>1275</ele>
        <time>2018-07-11T04:52:12Z</time>
      </trkpt>
      <trkpt lat="45.60902" lon="2.82224">
        <ele>1275</ele>
        <time>2018-07-11T04:53:12Z</time>
      </trkpt>
      <trkpt lat="45.60913" lon="2.82216">
        <ele>1275</ele>
        <time>2018-07-11T04:54:12Z</time>
      </trkpt>
      <trkpt lat="45.60928" lon="2.82211">
        <ele>1273</ele>
        <time>2018-07-11T04:55:12Z</time>
      </trkpt>
      <trkpt lat="45.60949" lon="2.82207">
        <ele>1271</ele>
        <time>2018-07-11T04:56:12Z</time>
      </trkpt>
      <trkpt lat="45.60952" lon="2.82206">
        <ele>1271</ele>
        <time>2018-07-11T04:57:12Z</time>
      </trkpt>
      <trkpt lat="45.60965" lon="2.82198">
        <ele>1270</ele>
        <time>2018-07-11T04:58:12Z</time>
      </trkpt>
      <trkpt lat="45.60976" lon="2.82193">
        <ele>1269</ele>
        <time>2018-07-11T04:59:12Z</time>
      </trkpt>
      <trkpt lat="45.60987" lon="2.82191">
        <ele>1268</ele>
        <time>2018-07-11T05:00:12Z</time>
      </trkpt>
      <trkpt lat="45.60992" lon="2.8219">
        <ele>1268</ele>
        <time>2018-07-11T05:01:12Z</time>
      </trkpt>
      <trkpt lat="45.61018" lon="2.8219">
        <ele>1266</ele>
        <time>2018-07-11T05:02:12Z</time>
      </trkpt>
      <trkpt lat="45.61032" lon="2.82195">
        <ele>1265</ele>
        <time>2018-07-11T05:03:12Z</time>
      </trkpt>
      <trkpt lat="45.61041" lon="2.82201">
        <ele>1264</ele>
        <time>2018-07-11T05:04:12Z</time>
      </trkpt>
      <trkpt lat="45.6105" lon="2.82211">
        <ele>1263</ele>
        <time>2018-07-11T05:05:12Z</time>
      </trkpt>
      <trkpt lat="45.61057" lon="2.8222">
        <ele>1262</ele>
        <time>2018-07-11T05:06:12Z</time>
      </trkpt>
      <trkpt lat="45.61065" lon="2.82225">
        <ele>1261</ele>
        <time>2018-07-11T05:07:12Z</time>
      </trkpt>
      <trkpt lat="45.61077" lon="2.82231">
        <ele>1261</ele>
        <time>2018-07-11T05:08:12Z</time>
      </trkpt>
      <trkpt lat="45.61088" lon="2.82233">
        <ele>1260</ele>
        <time>2018-07-11T05:09:12Z</time>
      </trkpt>
      <trkpt lat="45.61102" lon="2.82229">
        <ele>1259</ele>
        <time>2018-07-11T05:10:12Z</time>
      </trkpt>
      <trkpt lat="45.61113" lon="2.82225">
        <ele>1258</ele>
        <time>2018-07-11T05:11:12Z</time>
      </trkpt>
      <trkpt lat="45.61117" lon="2.82224">
        <ele>1258</ele>
        <time>2018-07-11T05:12:12Z</time>
      </trkpt>
      <trkpt lat="45.61121" lon="2.82226">
        <ele>1258</ele>
        <time>2018-07-11T05:13:12Z</time>
      </trkpt>
      <trkpt lat="45.6113" lon="2.82228">
        <ele>1257</ele>
        <time>2018-07-11T05:14:12Z</time>
      </trkpt>
      <trkpt lat="45.61154" lon="2.8221">
        <ele>1257</ele>
        <time>2018-07-11T05:15:12Z</time>
      </trkpt>
      <trkpt lat="45.61167" lon="2.82201">
        <ele>1257</ele>
        <time>2018-07-11T05:16:12Z</time>
      </trkpt>
      <trkpt lat="45.61176" lon="2.82193">
        <ele>1257</ele>
        <time>2018-07-11T05:17:12Z</time>
      </trkpt>
      <trkpt lat="45.61185" lon="2.82189">
        <ele>1257</ele>
        <time>2018-07-11T05:18:12Z</time>
      </trkpt>
      <trkpt lat="45.61208" lon="2.82191">
        <ele>1255</ele>
        <time>2018-07-11T05:19:12Z</time>
      </trkpt>
      <trkpt lat="45.6122" lon="2.82195">
        <ele>1254</ele>
        <time>2018-07-11T05:20:12Z</time>
      </trkpt>
      <trkpt lat="45.6123" lon="2.82203">
        <ele>1252</ele>
        <time>2018-07-11T05:21:12Z</time>
      </trkpt>
      <trkpt lat="45.6124" lon="2.82214">
        <ele>1251</ele>
        <time>2018-07-11T05:22:12Z</time>
      </trkpt>
      <trkpt lat="45.61248" lon="2.82215">
        <ele>1250</ele>
        <time>2018-07-11T05:23:12Z</time>
      </trkpt>
      <trkpt lat="45.61249" lon="2.82215">
        <ele>1250</ele>
        <time>2018-07-11T05:24:12Z</time>
      </trkpt>
      <trkpt lat="45.61249" lon="2.82212">
        <ele>1250</ele>
        <time>2018-07-11T05:25:12Z</time>
      </trkpt>
      <trkpt lat="45.6125" lon="2.82212">
        <ele>1250</ele>
        <time>2018-07-11T05:26:12Z</time>
      </trkpt>
      <trkpt lat="45.61248" lon="2.82204">
        <ele>1251</ele>
        <time>2018-07-11T05:27:12Z</time>
      </trkpt>
      <trkpt lat="45.61251" lon="2.82191">
        <ele>1252</ele>
        <time>2018-07-11T05:28:12Z</time>
      </trkpt>
      <trkpt lat="45.61268" lon="2.82153">
        <ele>1255</ele>
        <time>2018-07-11T05:29:12Z</time>
      </trkpt>
      <trkpt lat="45.61274" lon="2.8214">
        <ele>1257</ele>
        <time>2018-07-11T05:30:12Z</time>
      </trkpt>
      <trkpt lat="45.61287" lon="2.82104">
        <ele>1261</ele>
        <time>2018-07-11T05:31:12Z</time>
      </trkpt>
      <trkpt lat="45.61294" lon="2.8209">
        <ele>1263</ele>
        <time>2018-07-11T05:32:12Z</time>
      </trkpt>
      <trkpt lat="45.61303" lon="2.82082">
        <ele>1263</ele>
        <time>2018-07-11T05:33:12Z</time>
      </trkpt>
      <trkpt lat="45.61305" lon="2.82075">
        <ele>1264</ele>
        <time>2018-07-11T05:34:12Z</time>
      </trkpt>
      <trkpt lat="45.61307" lon="2.82075">
        <ele>1264</ele>
        <time>2018-07-11T05:35:12Z</time>
      </trkpt>
      <trkpt lat="45.61312" lon="2.82067">
        <ele>1265</ele>
        <time>2018-07-11T05:36:12Z</time>
      </trkpt>
      <trkpt lat="45.61315" lon="2.82068">
        <ele>1264</ele>
        <time>2018-07-11T05:37:12Z</time>
      </trkpt>
      <trkpt lat="45.61317" lon="2.82065">
        <ele>1264</ele>
        <time>2018-07-11T05:38:12Z</time>
      </trkpt>
      <trkpt lat="45.6132" lon="2.82051">
        <ele>1268</ele>
        <time>2018-07-11T05:39:12Z</time>
      </trkpt>
      <trkpt lat="45.61333" lon="2.82039">
        <ele>1269</ele>
        <time>2018-07-11T05:40:12Z</time>
      </trkpt>
      <trkpt lat="45.61335" lon="2.82034">
        <ele>1270</ele>
        <time>2018-07-11T05:41:12Z</time>
      </trkpt>
      <trkpt lat="45.61344" lon="2.82019">
        <ele>1272</ele>
        <time>2018-07-11T05:42:12Z</time>
      </trkpt>
      <trkpt lat="45.61346" lon="2.82015">
        <ele>1272</ele>
        <time>2018-07-11T05:43:12Z</time>
      </trkpt>
      <trkpt lat="45.61351" lon="2.82011">
        <ele>1272</ele>
        <time>2018-07-11T05:44:12Z</time>
      </trkpt>
      <trkpt lat="45.61365" lon="2.81989">
        <ele>1274</ele>
        <time>2018-07-11T05:45:12Z</time>
      </trkpt>
      <trkpt lat="45.61367" lon="2.81985">
        <ele>1274</ele>
        <time>2018-07-11T05:46:12Z</time>
      </trkpt>
      <trkpt lat="45.61371" lon="2.81981">
        <ele>1274</ele>
        <time>2018-07-11T05:47:12Z</time>
      </trkpt>
      <trkpt lat="45.61373" lon="2.81983">
        <ele>1273</ele>
        <time>2018-07-11T05:48:12Z</time>
      </trkpt>
      <trkpt lat="45.61378" lon="2.81991">
        <ele>1270</ele>
        <time>2018-07-11T05:49:12Z</time>
      </trkpt>
      <trkpt lat="45.6138" lon="2.81991">
        <ele>1270</ele>
        <time>2018-07-11T05:50:12Z</time>
      </trkpt>
      <trkpt lat="45.6138" lon="2.81992">
        <ele>1270</ele>
        <time>2018-07-11T05:51:12Z</time>
      </trkpt>
      <trkpt lat="45.61389" lon="2.81987">
        <ele>1269</ele>
        <time>2018-07-11T05:52:12Z</time>
      </trkpt>
      <trkpt lat="45.61386" lon="2.81984">
        <ele>1270</ele>
        <time>2018-07-11T05:53:12Z</time>
      </trkpt>
      <trkpt lat="45.61377" lon="2.81986">
        <ele>1272</ele>
        <time>2018-07-11T05:54:12Z</time>
      </trkpt>
      <trkpt lat="45.61369" lon="2.81988">
        <ele>1273</ele>
        <time>2018-07-11T05:55:12Z</time>
      </trkpt>
      <trkpt lat="45.61361" lon="2.81991">
        <ele>1274</ele>
        <time>2018-07-11T05:56:12Z</time>
      </trkpt>
      <trkpt lat="45.61353" lon="2.81991">
        <ele>1276</ele>
        <time>2018-07-11T05:57:12Z</time>
      </trkpt>
      <trkpt lat="45.61345" lon="2.81988">
        <ele>1278</ele>
        <time>2018-07-11T05:58:12Z</time>
      </trkpt>
      <trkpt lat="45.61335" lon="2.81988">
        <ele>1281</ele>
        <time>2018-07-11T05:59:12Z</time>
      </trkpt>
      <trkpt lat="45.61329" lon="2.81987">
        <ele>1282</ele>
        <time>2018-07-11T06:00:12Z</time>
      </trkpt>
      <trkpt lat="45.61308" lon="2.8198">
        <ele>1284</ele>
        <time>2018-07-11T06:01:12Z</time>
      </trkpt>
      <trkpt lat="45.61302" lon="2.81974">
        <ele>1285</ele>
        <time>2018-07-11T06:02:12Z</time>
      </trkpt>
      <trkpt lat="45.61295" lon="2.81974">
        <ele>1286</ele>
        <time>2018-07-11T06:03:12Z</time>
      </trkpt>
      <trkpt lat="45.61296" lon="2.81978">
        <ele>1285</ele>
        <time>2018-07-11T06:04:12Z</time>
      </trkpt>
      <trkpt lat="45.61296" lon="2.81977">
        <ele>1285</ele>
        <time>2018-07-11T06:05:12Z</time>
      </trkpt>
      <trkpt lat="45.61294" lon="2.81973">
        <ele>1286</ele>
        <time>2018-07-11T06:06:12Z</time>
      </trkpt>
      <trkpt lat="45.61294" lon="2.81973">
        <ele>1286</ele>
        <time>2018-07-11T06:07:12Z</time>
      </trkpt>
      <trkpt lat="45.61296" lon="2.81973">
        <ele>1286</ele>
        <time>2018-07-11T06:08:12Z</time>
      </trkpt>
      <trkpt lat="45.61296" lon="2.81972">
        <ele>1286</ele>
        <time>2018-07-11T06:09:12Z</time>
      </trkpt>
      <trkpt lat="45.61297" lon="2.81971">
        <ele>1286</ele>
        <time>2018-07-11T06:10:12Z</time>
      </trkpt>
      <trkpt lat="45.61299" lon="2.81972">
        <ele>1286</ele>
        <time>2018-07-11T06:11:12Z</time>
      </trkpt>
      <trkpt lat="45.61303" lon="2.81969">
        <ele>1286</ele>
        <time>2018-07-11T06:12:12Z</time>
      </trkpt>
      <trkpt lat="45.61302" lon="2.81969">
        <ele>1286</ele>
        <time>2018-07-11T06:13:12Z</time>
      </trkpt>
      <trkpt lat="45.61298" lon="2.81974">
        <ele>1286</ele>
        <time>2018-07-11T06:14:12Z</time>
      </trkpt>
      <trkpt lat="45.61298" lon="2.81974">
        <ele>1286</ele>
        <time>2018-07-11T06:15:12Z</time>
      </trkpt>
      <trkpt lat="45.61297" lon="2.81971">
        <ele>1286</ele>
        <time>2018-07-11T06:16:12Z</time>
      </trkpt>
      <trkpt lat="45.61298" lon="2.8197">
        <ele>1286</ele>
        <time>2018-07-11T06:17:12Z</time>
      </trkpt>
      <trkpt lat="45.61296" lon="2.81972">
        <ele>1286</ele>
        <time>2018-07-11T06:18:12Z</time>
      </trkpt>
      <trkpt lat="45.61295" lon="2.81973">
        <ele>1286</ele>
        <time>2018-07-11T06:19:12Z</time>
      </trkpt>
      <trkpt lat="45.61294" lon="2.8197">
        <ele>1286</ele>
        <time>2018-07-11T06:20:12Z</time>
      </trkpt>
      <trkpt lat="45.61293" lon="2.81968">
        <ele>1287</ele>
        <time>2018-07-11T06:21:12Z</time>
      </trkpt>
      <trkpt lat="45.61294" lon="2.81966">
        <ele>1287</ele>
        <time>2018-07-11T06:22:12Z</time>
      </trkpt>
      <trkpt lat="45.61295" lon="2.81962">
        <ele>1287</ele>
        <time>2018-07-11T06:23:12Z</time>
      </trkpt>
      <trkpt lat="45.61298" lon="2.81961">
        <ele>1287</ele>
        <time>2018-07-11T06:24:12Z</time>
      </trkpt>
      <trkpt lat="45.61299" lon="2.8196">
        <ele>1287</ele>
        <time>2018-07-11T06:25:12Z</time>
      </trkpt>
      <trkpt lat="45.61298" lon="2.81963">
        <ele>1287</ele>
        <time>2018-07-11T06:26:12Z</time>
      </trkpt>
      <trkpt lat="45.61298" lon="2.81965">
        <ele>1287</ele>
        <time>2018-07-11T06:27:12Z</time>
      </trkpt>
      <trkpt lat="45.61297" lon="2.81962">
        <ele>1287</ele>
        <time>2018-07-11T06:28:12Z</time>
      </trkpt>
      <trkpt lat="45.61297" lon="2.8196">
        <ele>1288</ele>
        <time>2018-07-11T06:29:12Z</time>
      </trkpt>
      <trkpt lat="45.61297" lon="2.81962">
        <ele>1287</ele>
        <time>2018-07-11T06:30:12Z</time>
      </trkpt>
      <trkpt lat="45.61297" lon="2.81965">
        <ele>1287</ele>
        <time>2018-07-11T06:31:12Z</time>
      </trkpt>
      <trkpt lat="45.61296" lon="2.81965">
        <ele>1287</ele>
        <time>2018-07-11T06:32:12Z</time>
      </trkpt>
      <trkpt lat="45.61297" lon="2.81967">
        <ele>1287</ele>
        <time>2018-07-11T06:33:12Z</time>
      </trkpt>
      <trkpt lat="45.61296" lon="2.81964">
        <ele>1287</ele>
        <time>2018-07-11T06:34:12Z</time>
      </trkpt>
      <trkpt lat="45.61296" lon="2.81963">
        <ele>1287</ele>
        <time>2018-07-11T06:35:12Z</time>
      </trkpt>
      <trkpt lat="45.61297" lon="2.81962">
        <ele>1287</ele>
        <time>2018-07-11T06:36:12Z</time>
      </trkpt>
      <trkpt lat="45.61298" lon="2.81963">
        <ele>1287</ele>
        <time>2018-07-11T06:37:12Z</time>
      </trkpt>
      <trkpt lat="45.61298" lon="2.8196">
        <ele>1287</ele>
        <time>2018-07-11T06:38:12Z</time>
      </trkpt>
      <trkpt lat="45.61302" lon="2.8196">
        <ele>1287</ele>
        <time>2018-07-11T06:39:12Z</time>
      </trkpt>
      <trkpt lat="45.61301" lon="2.81963">
        <ele>1287</ele>
        <time>2018-07-11T06:40:12Z</time>
      </trkpt>
      <trkpt lat="45.61306" lon="2.81967">
        <ele>1286</ele>
        <time>2018-07-11T06:41:12Z</time>
      </trkpt>
      <trkpt lat="45.61306" lon="2.81959">
        <ele>1287</ele>
        <time>2018-07-11T06:42:12Z</time>
      </trkpt>
      <trkpt lat="45.61304" lon="2.81958">
        <ele>1287</ele>
        <time>2018-07-11T06:43:12Z</time>
      </trkpt>
      <trkpt lat="45.61299" lon="2.81961">
        <ele>1287</ele>
        <time>2018-07-11T06:44:12Z</time>
      </trkpt>
      <trkpt lat="45.613" lon="2.81961">
        <ele>1287</ele>
        <time>2018-07-11T06:45:12Z</time>
      </trkpt>
      <trkpt lat="45.61306" lon="2.81973">
        <ele>1285</ele>
        <time>2018-07-11T06:46:12Z</time>
      </trkpt>
      <trkpt lat="45.61304" lon="2.8197">
        <ele>1286</ele>
        <time>2018-07-11T06:47:12Z</time>
      </trkpt>
      <trkpt lat="45.61304" lon="2.81971">
        <ele>1286</ele>
        <time>2018-07-11T06:48:12Z</time>
      </trkpt>
      <trkpt lat="45.61302" lon="2.81966">
        <ele>1286</ele>
        <time>2018-07-11T06:49:12Z</time>
      </trkpt>
      <trkpt lat="45.613" lon="2.81964">
        <ele>1287</ele>
        <time>2018-07-11T06:50:12Z</time>
      </trkpt>
      <trkpt lat="45.61303" lon="2.81967">
        <ele>1286</ele>
        <time>2018-07-11T06:51:12Z</time>
      </trkpt>
      <trkpt lat="45.61307" lon="2.81966">
        <ele>1286</ele>
        <time>2018-07-11T06:52:12Z</time>
      </trkpt>
      <trkpt lat="45.61306" lon="2.81967">
        <ele>1286</ele>
        <time>2018-07-11T06:53:12Z</time>
      </trkpt>
      <trkpt lat="45.61307" lon="2.8197">
        <ele>1286</ele>
        <time>2018-07-11T06:54:12Z</time>
      </trkpt>
      <trkpt lat="45.61304" lon="2.81971">
        <ele>1286</ele>
        <time>2018-07-11T06:55:12Z</time>
      </trkpt>
      <trkpt lat="45.61303" lon="2.8197">
        <ele>1286</ele>
        <time>2018-07-11T06:56:12Z</time>
      </trkpt>
      <trkpt lat="45.61305" lon="2.81963">
        <ele>1287</ele>
        <time>2018-07-11T06:57:12Z</time>
      </trkpt>
      <trkpt lat="45.61307" lon="2.81961">
        <ele>1287</ele>
        <time>2018-07-11T06:58:12Z</time>
      </trkpt>
      <trkpt lat="45.61307" lon="2.8197">
        <ele>1286</ele>
        <time>2018-07-11T06:59:12Z</time>
      </trkpt>
      <trkpt lat="45.61307" lon="2.8197">
        <ele>1286</ele>
        <time>2018-07-11T07:00:12Z</time>
      </trkpt>
      <trkpt lat="45.61304" lon="2.81968">
        <ele>1286</ele>
        <time>2018-07-11T07:01:12Z</time>
      </trkpt>
      <trkpt lat="45.61301" lon="2.81967">
        <ele>1286</ele>
        <time>2018-07-11T07:02:12Z</time>
      </trkpt>
      <trkpt lat="45.613" lon="2.81967">
        <ele>1286</ele>
        <time>2018-07-11T07:03:12Z</time>
      </trkpt>
      <trkpt lat="45.61297" lon="2.81961">
        <ele>1287</ele>
        <time>2018-07-11T07:04:12Z</time>
      </trkpt>
      <trkpt lat="45.61297" lon="2.81961">
        <ele>1287</ele>
        <time>2018-07-11T07:05:12Z</time>
      </trkpt>
      <trkpt lat="45.61298" lon="2.81962">
        <ele>1287</ele>
        <time>2018-07-11T07:06:12Z</time>
      </trkpt>
      <trkpt lat="45.61296" lon="2.81963">
        <ele>1287</ele>
        <time>2018-07-11T07:07:12Z</time>
      </trkpt>
      <trkpt lat="45.61297" lon="2.81967">
        <ele>1287</ele>
        <time>2018-07-11T07:08:12Z</time>
      </trkpt>
      <trkpt lat="45.61293" lon="2.81967">
        <ele>1287</ele>
        <time>2018-07-11T07:09:12Z</time>
      </trkpt>
      <trkpt lat="45.61292" lon="2.81967">
        <ele>1287</ele>
        <time>2018-07-11T07:10:12Z</time>
      </trkpt>
      <trkpt lat="45.61293" lon="2.81967">
        <ele>1287</ele>
        <time>2018-07-11T07:11:12Z</time>
      </trkpt>
      <trkpt lat="45.61294" lon="2.81968">
        <ele>1287</ele>
        <time>2018-07-11T07:12:12Z</time>
      </trkpt>
      <trkpt lat="45.61293" lon="2.81968">
        <ele>1287</ele>
        <time>2018-07-11T07:13:12Z</time>
      </trkpt>
      <trkpt lat="45.61291" lon="2.8197">
        <ele>1287</ele>
        <time>2018-07-11T07:14:12Z</time>
      </trkpt>
      <trkpt lat="45.6129" lon="2.81971">
        <ele>1287</ele>
        <time>2018-07-11T07:15:12Z</time>
      </trkpt>
      <trkpt lat="45.61289" lon="2.8197">
        <ele>1287</ele>
        <time>2018-07-11T07:16:12Z</time>
      </trkpt>
      <trkpt lat="45.61288" lon="2.81969">
        <ele>1287</ele>
        <time>2018-07-11T07:17:12Z</time>
      </trkpt>
      <trkpt lat="45.61288" lon="2.8197">
        <ele>1287</ele>
        <time>2018-07-11T07:18:12Z</time>
      </trkpt>
      <trkpt lat="45.61286" lon="2.8197">
        <ele>1287</ele>
        <time>2018-07-11T07:19:12Z</time>
      </trkpt>
      <trkpt lat="45.61287" lon="2.8197">
        <ele>1287</ele>
        <time>2018-07-11T07:20:12Z</time>
      </trkpt>
      <trkpt lat="45.61289" lon="2.8197">
        <ele>1287</ele>
        <time>2018-07-11T07:21:12Z</time>
      </trkpt>
      <trkpt lat="45.61289" lon="2.81973">
        <ele>1286</ele>
        <time>2018-07-11T07:22:12Z</time>
      </trkpt>
      <trkpt lat="45.61289" lon="2.81976">
        <ele>1286</ele>
        <time>2018-07-11T07:23:12Z</time>
      </trkpt>
      <trkpt lat="45.61289" lon="2.81975">
        <ele>1286</ele>
        <time>2018-07-11T07:24:12Z</time>
      </trkpt>
      <trkpt lat="45.6129" lon="2.81973">
        <ele>1286</ele>
        <time>2018-07-11T07:25:12Z</time>
      </trkpt>
      <trkpt lat="45.61295" lon="2.81973">
        <ele>1286</ele>
        <time>2018-07-11T07:26:12Z</time>
      </trkpt>
      <trkpt lat="45.61297" lon="2.81973">
        <ele>1286</ele>
        <time>2018-07-11T07:27:12Z</time>
      </trkpt>
      <trkpt lat="45.61298" lon="2.81979">
        <ele>1285</ele>
        <time>2018-07-11T07:28:12Z</time>
      </trkpt>
      <trkpt lat="45.61292" lon="2.81978">
        <ele>1286</ele>
        <time>2018-07-11T07:29:12Z</time>
      </trkpt>
      <trkpt lat="45.61294" lon="2.81974">
        <ele>1286</ele>
        <time>2018-07-11T07:30:12Z</time>
      </trkpt>
      <trkpt lat="45.61294" lon="2.81974">
        <ele>1286</ele>
        <time>2018-07-11T07:31:12Z</time>
      </trkpt>
      <trkpt lat="45.61297" lon="2.81978">
        <ele>1285</ele>
        <time>2018-07-11T07:32:12Z</time>
      </trkpt>
      <trkpt lat="45.61296" lon="2.81982">
        <ele>1285</ele>
        <time>2018-07-11T07:33:12Z</time>
      </trkpt>
      <trkpt lat="45.61297" lon="2.81985">
        <ele>1284</ele>
        <time>2018-07-11T07:34:12Z</time>
      </trkpt>
      <trkpt lat="45.61297" lon="2.81984">
        <ele>1285</ele>
        <time>2018-07-11T07:35:12Z</time>
      </trkpt>
      <trkpt lat="45.61298" lon="2.81983">
        <ele>1285</ele>
        <time>2018-07-11T07:36:12Z</time>
      </trkpt>
      <trkpt lat="45.61297" lon="2.8198">
        <ele>1285</ele>
        <time>2018-07-11T07:37:12Z</time>
      </trkpt>
      <trkpt lat="45.61297" lon="2.81985">
        <ele>1284</ele>
        <time>2018-07-11T07:38:12Z</time>
      </trkpt>
      <trkpt lat="45.61296" lon="2.81981">
        <ele>1285</ele>
        <time>2018-07-11T07:39:12Z</time>
      </trkpt>
      <trkpt lat="45.61299" lon="2.81976">
        <ele>1285</ele>
        <time>2018-07-11T07:40:12Z</time>
      </trkpt>
      <trkpt lat="45.61301" lon="2.81975">
        <ele>1285</ele>
        <time>2018-07-11T07:41:12Z</time>
      </trkpt>
      <trkpt lat="45.61304" lon="2.81973">
        <ele>1285</ele>
        <time>2018-07-11T07:42:12Z</time>
      </trkpt>
      <trkpt lat="45.61304" lon="2.81972">
        <ele>1286</ele>
        <time>2018-07-11T07:43:12Z</time>
      </trkpt>
      <trkpt lat="45.61305" lon="2.81972">
        <ele>1286</ele>
        <time>2018-07-11T07:44:12Z</time>
      </trkpt>
      <trkpt lat="45.61306" lon="2.81973">
        <ele>1285</ele>
        <time>2018-07-11T07:45:12Z</time>
      </trkpt>
      <trkpt lat="45.61306" lon="2.81976">
        <ele>1285</ele>
        <time>2018-07-11T07:46:12Z</time>
      </trkpt>
      <trkpt lat="45.61305" lon="2.81974">
        <ele>1285</ele>
        <time>2018-07-11T07:47:12Z</time>
      </trkpt>
      <trkpt lat="45.61304" lon="2.8197">
        <ele>1286</ele>
        <time>2018-07-11T07:48:12Z</time>
      </trkpt>
      <trkpt lat="45.61303" lon="2.81971">
        <ele>1286</ele>
        <time>2018-07-11T07:49:12Z</time>
      </trkpt>
      <trkpt lat="45.61303" lon="2.81972">
        <ele>1286</ele>
        <time>2018-07-11T07:50:12Z</time>
      </trkpt>
      <trkpt lat="45.61303" lon="2.81971">
        <ele>1286</ele>
        <time>2018-07-11T07:51:12Z</time>
      </trkpt>
      <trkpt lat="45.61306" lon="2.81973">
        <ele>1285</ele>
        <time>2018-07-11T07:52:12Z</time>
      </trkpt>
      <trkpt lat="45.61308" lon="2.81972">
        <ele>1285</ele>
        <time>2018-07-11T07:53:12Z</time>
      </trkpt>
      <trkpt lat="45.61307" lon="2.81972">
        <ele>1285</ele>
        <time>2018-07-11T07:54:12Z</time>
      </trkpt>
      <trkpt lat="45.61309" lon="2.81969">
        <ele>1286</ele>
        <time>2018-07-11T07:55:12Z</time>
      </trkpt>
      <trkpt lat="45.61303" lon="2.81971">
        <ele>1286</ele>
        <time>2018-07-11T07:56:12Z</time>
      </trkpt>
      <trkpt lat="45.61303" lon="2.81972">
        <ele>1286</ele>
        <time>2018-07-11T07:57:12Z</time>
      </trkpt>
      <trkpt lat="45.61302" lon="2.81973">
        <ele>1286</ele>
        <time>2018-07-11T07:58:12Z</time>
      </trkpt>
      <trkpt lat="45.61302" lon="2.81972">
        <ele>1286</ele>
        <time>2018-07-11T07:59:12Z</time>
      </trkpt>
      <trkpt lat="45.61308" lon="2.81971">
        <ele>1285</ele>
        <time>2018-07-11T08:00:12Z</time>
      </trkpt>
      <trkpt lat="45.6131" lon="2.81971">
        <ele>1285</ele>
        <time>2018-07-11T08:01:12Z</time>
      </trkpt>
      <trkpt lat="45.61311" lon="2.81972">
        <ele>1285</ele>
        <time>2018-07-11T08:02:12Z</time>
      </trkpt>
      <trkpt lat="45.61312" lon="2.81973">
        <ele>1285</ele>
        <time>2018-07-11T08:03:12Z</time>
      </trkpt>
      <trkpt lat="45.6131" lon="2.81974">
        <ele>1285</ele>
        <time>2018-07-11T08:04:12Z</time>
      </trkpt>
      <trkpt lat="45.61313" lon="2.81973">
        <ele>1285</ele>
        <time>2018-07-11T08:05:12Z</time>
      </trkpt>
      <trkpt lat="45.61314" lon="2.81976">
        <ele>1284</ele>
        <time>2018-07-11T08:06:12Z</time>
      </trkpt>
      <trkpt lat="45.61314" lon="2.81979">
        <ele>1284</ele>
        <time>2018-07-11T08:07:12Z</time>
      </trkpt>
      <trkpt lat="45.61313" lon="2.81979">
        <ele>1284</ele>
        <time>2018-07-11T08:08:12Z</time>
      </trkpt>
      <trkpt lat="45.61313" lon="2.8198">
        <ele>1284</ele>
        <time>2018-07-11T08:09:12Z</time>
      </trkpt>
      <trkpt lat="45.61314" lon="2.81979">
        <ele>1284</ele>
        <time>2018-07-11T08:10:12Z</time>
      </trkpt>
      <trkpt lat="45.61317" lon="2.81975">
        <ele>1284</ele>
        <time>2018-07-11T08:11:12Z</time>
      </trkpt>
      <trkpt lat="45.6132" lon="2.8197">
        <ele>1285</ele>
        <time>2018-07-11T08:12:12Z</time>
      </trkpt>
      <trkpt lat="45.61322" lon="2.81965">
        <ele>1286</ele>
        <time>2018-07-11T08:13:12Z</time>
      </trkpt>
      <trkpt lat="45.61317" lon="2.81962">
        <ele>1286</ele>
        <time>2018-07-11T08:14:12Z</time>
      </trkpt>
      <trkpt lat="45.61309" lon="2.8196">
        <ele>1287</ele>
        <time>2018-07-11T08:15:12Z</time>
      </trkpt>
      <trkpt lat="45.61308" lon="2.81955">
        <ele>1288</ele>
        <time>2018-07-11T08:16:12Z</time>
      </trkpt>
      <trkpt lat="45.6131" lon="2.81951">
        <ele>1288</ele>
        <time>2018-07-11T08:17:12Z</time>
      </trkpt>
      <trkpt lat="45.61315" lon="2.81951">
        <ele>1288</ele>
        <time>2018-07-11T08:18:12Z</time>
      </trkpt>
      <trkpt lat="45.61319" lon="2.81948">
        <ele>1288</ele>
        <time>2018-07-11T08:19:12Z</time>
      </trkpt>
      <trkpt lat="45.61331" lon="2.81942">
        <ele>1289</ele>
        <time>2018-07-11T08:20:12Z</time>
      </trkpt>
      <trkpt lat="45.61337" lon="2.81942">
        <ele>1288</ele>
        <time>2018-07-11T08:21:12Z</time>
      </trkpt>
      <trkpt lat="45.61345" lon="2.81939">
        <ele>1287</ele>
        <time>2018-07-11T08:22:12Z</time>
      </trkpt>
      <trkpt lat="45.61354" lon="2.81934">
        <ele>1287</ele>
        <time>2018-07-11T08:23:12Z</time>
      </trkpt>
      <trkpt lat="45.6137" lon="2.8192">
        <ele>1288</ele>
        <time>2018-07-11T08:24:12Z</time>
      </trkpt>
      <trkpt lat="45.61376" lon="2.81916">
        <ele>1288</ele>
        <time>2018-07-11T08:25:12Z</time>
      </trkpt>
      <trkpt lat="45.61383" lon="2.81919">
        <ele>1286</ele>
        <time>2018-07-11T08:26:12Z</time>
      </trkpt>
      <trkpt lat="45.61384" lon="2.81919">
        <ele>1286</ele>
        <time>2018-07-11T08:27:12Z</time>
      </trkpt>
      <trkpt lat="45.61393" lon="2.81913">
        <ele>1286</ele>
        <time>2018-07-11T08:28:12Z</time>
      </trkpt>
      <trkpt lat="45.61401" lon="2.81907">
        <ele>1286</ele>
        <time>2018-07-11T08:29:12Z</time>
      </trkpt>
      <trkpt lat="45.61404" lon="2.81905">
        <ele>1286</ele>
        <time>2018-07-11T08:30:12Z</time>
      </trkpt>
      <trkpt lat="45.61411" lon="2.81904">
        <ele>1285</ele>
        <time>2018-07-11T08:31:12Z</time>
      </trkpt>
      <trkpt lat="45.61414" lon="2.81899">
        <ele>1286</ele>
        <time>2018-07-11T08:32:12Z</time>
      </trkpt>
      <trkpt lat="45.6142" lon="2.81889">
        <ele>1286</ele>
        <time>2018-07-11T08:33:12Z</time>
      </trkpt>
      <trkpt lat="45.61427" lon="2.8188">
        <ele>1287</ele>
        <time>2018-07-11T08:34:12Z</time>
      </trkpt>
      <trkpt lat="45.61429" lon="2.81878">
        <ele>1286</ele>
        <time>2018-07-11T08:35:12Z</time>
      </trkpt>
      <trkpt lat="45.61437" lon="2.8188">
        <ele>1285</ele>
        <time>2018-07-11T08:36:12Z</time>
      </trkpt>
      <trkpt lat="45.61439" lon="2.81885">
        <ele>1284</ele>
        <time>2018-07-11T08:37:12Z</time>
      </trkpt>
      <trkpt lat="45.61443" lon="2.81895">
        <ele>1282</ele>
        <time>2018-07-11T08:38:12Z</time>
      </trkpt>
      <trkpt lat="45.61455" lon="2.81896">
        <ele>1279</ele>
        <time>2018-07-11T08:39:12Z</time>
      </trkpt>
      <trkpt lat="45.61458" lon="2.81897">
        <ele>1279</ele>
        <time>2018-07-11T08:40:12Z</time>
      </trkpt>
      <trkpt lat="45.61464" lon="2.81891">
        <ele>1279</ele>
        <time>2018-07-11T08:41:12Z</time>
      </trkpt>
      <trkpt lat="45.61465" lon="2.81891">
        <ele>1278</ele>
        <time>2018-07-11T08:42:12Z</time>
      </trkpt>
      <trkpt lat="45.61466" lon="2.81889">
        <ele>1278</ele>
        <time>2018-07-11T08:43:12Z</time>
      </trkpt>
      <trkpt lat="45.6147" lon="2.81891">
        <ele>1277</ele>
        <time>2018-07-11T08:44:12Z</time>
      </trkpt>
      <trkpt lat="45.61478" lon="2.81882">
        <ele>1278</ele>
        <time>2018-07-11T08:45:12Z</time>
      </trkpt>
      <trkpt lat="45.61483" lon="2.81874">
        <ele>1278</ele>
        <time>2018-07-11T08:46:12Z</time>
      </trkpt>
      <trkpt lat="45.61489" lon="2.81872">
        <ele>1277</ele>
        <time>2018-07-11T08:47:12Z</time>
      </trkpt>
      <trkpt lat="45.61498" lon="2.81864">
        <ele>1277</ele>
        <time>2018-07-11T08:48:12Z</time>
      </trkpt>
      <trkpt lat="45.615" lon="2.81859">
        <ele>1278</ele>
        <time>2018-07-11T08:49:12Z</time>
      </trkpt>
      <trkpt lat="45.61513" lon="2.81856">
        <ele>1275</ele>
        <time>2018-07-11T08:50:12Z</time>
      </trkpt>
      <trkpt lat="45.61535" lon="2.81856">
        <ele>1269</ele>
        <time>2018-07-11T08:51:12Z</time>
      </trkpt>
      <trkpt lat="45.61549" lon="2.81848">
        <ele>1266</ele>
        <time>2018-07-11T08:52:12Z</time>
      </trkpt>
      <trkpt lat="45.61559" lon="2.81841">
        <ele>1264</ele>
        <time>2018-07-11T08:53:12Z</time>
      </trkpt>
      <trkpt lat="45.61566" lon="2.81835">
        <ele>1263</ele>
        <time>2018-07-11T08:54:12Z</time>
      </trkpt>
      <trkpt lat="45.61575" lon="2.81834">
        <ele>1260</ele>
        <time>2018-07-11T08:55:12Z</time>
      </trkpt>
      <trkpt lat="45.61583" lon="2.81834">
        <ele>1258</ele>
        <time>2018-07-11T08:56:12Z</time>
      </trkpt>
      <trkpt lat="45.6159" lon="2.81822">
        <ele>1259</ele>
        <time>2018-07-11T08:57:12Z</time>
      </trkpt>
      <trkpt lat="45.61593" lon="2.8182">
        <ele>1258</ele>
        <time>2018-07-11T08:58:12Z</time>
      </trkpt>
      <trkpt lat="45.61595" lon="2.81822">
        <ele>1258</ele>
        <time>2018-07-11T08:59:12Z</time>
      </trkpt>
      <trkpt lat="45.61599" lon="2.81824">
        <ele>1257</ele>
        <time>2018-07-11T09:00:12Z</time>
      </trkpt>
      <trkpt lat="45.61605" lon="2.81821">
        <ele>1257</ele>
        <time>2018-07-11T09:01:12Z</time>
      </trkpt>
      <trkpt lat="45.61612" lon="2.81816">
        <ele>1256</ele>
        <time>2018-07-11T09:02:12Z</time>
      </trkpt>
      <trkpt lat="45.61622" lon="2.81811">
        <ele>1255</ele>
        <time>2018-07-11T09:03:12Z</time>
      </trkpt>
      <trkpt lat="45.61633" lon="2.81806">
        <ele>1254</ele>
        <time>2018-07-11T09:04:12Z</time>
      </trkpt>
      <trkpt lat="45.6164" lon="2.81799">
        <ele>1254</ele>
        <time>2018-07-11T09:05:12Z</time>
      </trkpt>
      <trkpt lat="45.61648" lon="2.81793">
        <ele>1253</ele>
        <time>2018-07-11T09:06:12Z</time>
      </trkpt>
      <trkpt lat="45.61659" lon="2.81787">
        <ele>1252</ele>
        <time>2018-07-11T09:07:12Z</time>
      </trkpt>
      <trkpt lat="45.61662" lon="2.81786">
        <ele>1251</ele>
        <time>2018-07-11T09:08:12Z</time>
      </trkpt>
      <trkpt lat="45.61663" lon="2.81786">
        <ele>1251</ele>
        <time>2018-07-11T09:09:12Z</time>
      </trkpt>
      <trkpt lat="45.61663" lon="2.81785">
        <ele>1251</ele>
        <time>2018-07-11T09:10:12Z</time>
      </trkpt>
      <trkpt lat="45.61664" lon="2.81785">
        <ele>1251</ele>
        <time>2018-07-11T09:11:12Z</time>
      </trkpt>
      <trkpt lat="45.61676" lon="2.81797">
        <ele>1249</ele>
        <time>2018-07-11T09:12:12Z</time>
      </trkpt>
      <trkpt lat="45.61682" lon="2.81811">
        <ele>1248</ele>
        <time>2018-07-11T09:13:12Z</time>
      </trkpt>
      <trkpt lat="45.61688" lon="2.81809">
        <ele>1248</ele>
        <time>2018-07-11T09:14:12Z</time>
      </trkpt>
      <trkpt lat="45.61693" lon="2.81811">
        <ele>1248</ele>
        <time>2018-07-11T09:15:12Z</time>
      </trkpt>
      <trkpt lat="45.617" lon="2.81811">
        <ele>1248</ele>
        <time>2018-07-11T09:16:12Z</time>
      </trkpt>
      <trkpt lat="45.61704" lon="2.81814">
        <ele>1248</ele>
        <time>2018-07-11T09:17:12Z</time>
      </trkpt>
      <trkpt lat="45.61714" lon="2.81817">
        <ele>1248</ele>
        <time>2018-07-11T09:18:12Z</time>
      </trkpt>
      <trkpt lat="45.61724" lon="2.81818">
        <ele>1248</ele>
        <time>2018-07-11T09:19:12Z</time>
      </trkpt>
      <trkpt lat="45.6174" lon="2.81814">
        <ele>1248</ele>
        <time>2018-07-11T09:20:12Z</time>
      </trkpt>
      <trkpt lat="45.61751" lon="2.81807">
        <ele>1249</ele>
        <time>2018-07-11T09:21:12Z</time>
      </trkpt>
      <trkpt lat="45.61759" lon="2.81808">
        <ele>1249</ele>
        <time>2018-07-11T09:22:12Z</time>
      </trkpt>
      <trkpt lat="45.61769" lon="2.81803">
        <ele>1250</ele>
        <time>2018-07-11T09:23:12Z</time>
      </trkpt>
      <trkpt lat="45.61773" lon="2.81806">
        <ele>1251</ele>
        <time>2018-07-11T09:24:12Z</time>
      </trkpt>
      <trkpt lat="45.61783" lon="2.81805">
        <ele>1252</ele>
        <time>2018-07-11T09:25:12Z</time>
      </trkpt>
      <trkpt lat="45.61799" lon="2.8181">
        <ele>1253</ele>
        <time>2018-07-11T09:26:12Z</time>
      </trkpt>
      <trkpt lat="45.61805" lon="2.81811">
        <ele>1253</ele>
        <time>2018-07-11T09:27:12Z</time>
      </trkpt>
      <trkpt lat="45.61814" lon="2.81818">
        <ele>1253</ele>
        <time>2018-07-11T09:28:12Z</time>
      </trkpt>
      <trkpt lat="45.61821" lon="2.81836">
        <ele>1253</ele>
        <time>2018-07-11T09:29:12Z</time>
      </trkpt>
      <trkpt lat="45.61824" lon="2.81845">
        <ele>1253</ele>
        <time>2018-07-11T09:30:12Z</time>
      </trkpt>
      <trkpt lat="45.61831" lon="2.81848">
        <ele>1253</ele>
        <time>2018-07-11T09:31:12Z</time>
      </trkpt>
      <trkpt lat="45.61844" lon="2.81845">
        <ele>1256</ele>
        <time>2018-07-11T09:32:12Z</time>
      </trkpt>
      <trkpt lat="45.61847" lon="2.81852">
        <ele>1256</ele>
        <time>2018-07-11T09:33:12Z</time>
      </trkpt>
      <trkpt lat="45.61848" lon="2.81858">
        <ele>1256</ele>
        <time>2018-07-11T09:34:12Z</time>
      </trkpt>
      <trkpt lat="45.61855" lon="2.8187">
        <ele>1257</ele>
        <time>2018-07-11T09:35:12Z</time>
      </trkpt>
      <trkpt lat="45.61863" lon="2.81872">
        <ele>1258</ele>
        <time>2018-07-11T09:36:12Z</time>
      </trkpt>
      <trkpt lat="45.61865" lon="2.81872">
        <ele>1259</ele>
        <time>2018-07-11T09:37:12Z</time>
      </trkpt>
      <trkpt lat="45.61865" lon="2.81869">
        <ele>1259</ele>
        <time>2018-07-11T09:38:12Z</time>
      </trkpt>
      <trkpt lat="45.61867" lon="2.81867">
        <ele>1259</ele>
        <time>2018-07-11T09:39:12Z</time>
      </trkpt>
      <trkpt lat="45.61869" lon="2.81881">
        <ele>1259</ele>
        <time>2018-07-11T09:40:12Z</time>
      </trkpt>
      <trkpt lat="45.6187" lon="2.81895">
        <ele>1259</ele>
        <time>2018-07-11T09:41:12Z</time>
      </trkpt>
      <trkpt lat="45.6187" lon="2.8193">
        <ele>1258</ele>
        <time>2018-07-11T09:42:12Z</time>
      </trkpt>
      <trkpt lat="45.61868" lon="2.81951">
        <ele>1257</ele>
        <time>2018-07-11T09:43:12Z</time>
      </trkpt>
      <trkpt lat="45.61869" lon="2.81991">
        <ele>1255</ele>
        <time>2018-07-11T09:44:12Z</time>
      </trkpt>
      <trkpt lat="45.61869" lon="2.82015">
        <ele>1255</ele>
        <time>2018-07-11T09:45:12Z</time>
      </trkpt>
      <trkpt lat="45.61872" lon="2.82033">
        <ele>1255</ele>
        <time>2018-07-11T09:46:12Z</time>
      </trkpt>
      <trkpt lat="45.61872" lon="2.82041">
        <ele>1255</ele>
        <time>2018-07-11T09:47:12Z</time>
      </trkpt>
      <trkpt lat="45.61864" lon="2.82054">
        <ele>1254</ele>
        <time>2018-07-11T09:48:12Z</time>
      </trkpt>
      <trkpt lat="45.61852" lon="2.82067">
        <ele>1252</ele>
        <time>2018-07-11T09:49:12Z</time>
      </trkpt>
      <trkpt lat="45.61844" lon="2.82083">
        <ele>1251</ele>
        <time>2018-07-11T09:50:12Z</time>
      </trkpt>
      <trkpt lat="45.61837" lon="2.82103">
        <ele>1250</ele>
        <time>2018-07-11T09:51:12Z</time>
      </trkpt>
      <trkpt lat="45.61837" lon="2.82116">
        <ele>1250</ele>
        <time>2018-07-11T09:52:12Z</time>
      </trkpt>
      <trkpt lat="45.61838" lon="2.82137">
        <ele>1250</ele>
        <time>2018-07-11T09:53:12Z</time>
      </trkpt>
      <trkpt lat="45.61843" lon="2.8215">
        <ele>1251</ele>
        <time>2018-07-11T09:54:12Z</time>
      </trkpt>
      <trkpt lat="45.61851" lon="2.82152">
        <ele>1251</ele>
        <time>2018-07-11T09:55:12Z</time>
      </trkpt>
      <trkpt lat="45.61856" lon="2.82148">
        <ele>1251</ele>
        <time>2018-07-11T09:56:12Z</time>
      </trkpt>
      <trkpt lat="45.61862" lon="2.8215">
        <ele>1252</ele>
        <time>2018-07-11T09:57:12Z</time>
      </trkpt>
      <trkpt lat="45.61862" lon="2.82151">
        <ele>1252</ele>
        <time>2018-07-11T09:58:12Z</time>
      </trkpt>
      <trkpt lat="45.6187" lon="2.82151">
        <ele>1252</ele>
        <time>2018-07-11T09:59:12Z</time>
      </trkpt>
      <trkpt lat="45.61882" lon="2.82153">
        <ele>1253</ele>
        <time>2018-07-11T10:00:12Z</time>
      </trkpt>
      <trkpt lat="45.61888" lon="2.82164">
        <ele>1253</ele>
        <time>2018-07-11T10:01:12Z</time>
      </trkpt>
      <trkpt lat="45.6188" lon="2.82166">
        <ele>1252</ele>
        <time>2018-07-11T10:02:12Z</time>
      </trkpt>
      <trkpt lat="45.61875" lon="2.82171">
        <ele>1252</ele>
        <time>2018-07-11T10:03:12Z</time>
      </trkpt>
      <trkpt lat="45.61879" lon="2.82184">
        <ele>1252</ele>
        <time>2018-07-11T10:04:12Z</time>
      </trkpt>
      <trkpt lat="45.61886" lon="2.82198">
        <ele>1252</ele>
        <time>2018-07-11T10:05:12Z</time>
      </trkpt>
      <trkpt lat="45.61886" lon="2.8221">
        <ele>1252</ele>
        <time>2018-07-11T10:06:12Z</time>
      </trkpt>
      <trkpt lat="45.61885" lon="2.82221">
        <ele>1252</ele>
        <time>2018-07-11T10:07:12Z</time>
      </trkpt>
      <trkpt lat="45.61881" lon="2.82232">
        <ele>1251</ele>
        <time>2018-07-11T10:08:12Z</time>
      </trkpt>
      <trkpt lat="45.61886" lon="2.82232">
        <ele>1251</ele>
        <time>2018-07-11T10:09:12Z</time>
      </trkpt>
      <trkpt lat="45.61899" lon="2.8223">
        <ele>1252</ele>
        <time>2018-07-11T10:10:12Z</time>
      </trkpt>
      <trkpt lat="45.61907" lon="2.82225">
        <ele>1252</ele>
        <time>2018-07-11T10:11:12Z</time>
      </trkpt>
      <trkpt lat="45.61915" lon="2.82219">
        <ele>1252</ele>
        <time>2018-07-11T10:12:12Z</time>
      </trkpt>
      <trkpt lat="45.61925" lon="2.82223">
        <ele>1254</ele>
        <time>2018-07-11T10:13:12Z</time>
      </trkpt>
      <trkpt lat="45.61936" lon="2.82222">
        <ele>1256</ele>
        <time>2018-07-11T10:14:12Z</time>
      </trkpt>
      <trkpt lat="45.61945" lon="2.82219">
        <ele>1257</ele>
        <time>2018-07-11T10:15:12Z</time>
      </trkpt>
      <trkpt lat="45.6195" lon="2.82213">
        <ele>1258</ele>
        <time>2018-07-11T10:16:12Z</time>
      </trkpt>
      <trkpt lat="45.61956" lon="2.82202">
        <ele>1259</ele>
        <time>2018-07-11T10:17:12Z</time>
      </trkpt>
      <trkpt lat="45.6196" lon="2.82185">
        <ele>1260</ele>
        <time>2018-07-11T10:18:12Z</time>
      </trkpt>
      <trkpt lat="45.6196" lon="2.82163">
        <ele>1259</ele>
        <time>2018-07-11T10:19:12Z</time>
      </trkpt>
      <trkpt lat="45.61962" lon="2.82133">
        <ele>1260</ele>
        <time>2018-07-11T10:20:12Z</time>
      </trkpt>
      <trkpt lat="45.61968" lon="2.82123">
        <ele>1261</ele>
        <time>2018-07-11T10:21:12Z</time>
      </trkpt>
      <trkpt lat="45.61976" lon="2.82122">
        <ele>1261</ele>
        <time>2018-07-11T10:22:12Z</time>
      </trkpt>
      <trkpt lat="45.61985" lon="2.82119">
        <ele>1262</ele>
        <time>2018-07-11T10:23:12Z</time>
      </trkpt>
      <trkpt lat="45.61994" lon="2.82114">
        <ele>1262</ele>
        <time>2018-07-11T10:24:12Z</time>
      </trkpt>
      <trkpt lat="45.62007" lon="2.8211">
        <ele>1263</ele>
        <time>2018-07-11T10:25:12Z</time>
      </trkpt>
      <trkpt lat="45.62017" lon="2.82101">
        <ele>1264</ele>
        <time>2018-07-11T10:26:12Z</time>
      </trkpt>
      <trkpt lat="45.62026" lon="2.82089">
        <ele>1264</ele>
        <time>2018-07-11T10:27:12Z</time>
      </trkpt>
      <trkpt lat="45.62038" lon="2.82077">
        <ele>1264</ele>
        <time>2018-07-11T10:28:12Z</time>
      </trkpt>
      <trkpt lat="45.62044" lon="2.82068">
        <ele>1265</ele>
        <time>2018-07-11T10:29:12Z</time>
      </trkpt>
      <trkpt lat="45.62048" lon="2.82055">
        <ele>1267</ele>
        <time>2018-07-11T10:30:12Z</time>
      </trkpt>
    </trkseg>
  </trk>
</gpx>